LS832 / G-JZHP 7700 Squawk Report (9th of November, 2019)

Aircraft B738 Reg No. G-JZHP Age 2 years old
Model 737 Jet engines 2 First flight 02-12-16
Registered 16-12-16 Rollout N/A Delivered 16-12-16
Construction No. 63147 Line No. 6198 Series 800
ADSHEX 4070E4 Airline name Jet2 Owner N/A
Airfield based Leeds-Bradford~Yorks~G First tracked 2017-07-13 06:27:00

Flight history for G-JZHP

Route Flight No Date Playback
Madeira (FNC) - Manchester (MAN) LS766 2019-11-22 18:49:00
Manchester (MAN) - Madeira (FNC) LS765 2019-11-22 13:41:00
Alicante (ALC) - Manchester (MAN) LS880 2019-11-21 17:03:00
Manchester (MAN) - Alicante (ALC) LS879 2019-11-21 13:16:00
Cote D Azur (NCE) - Manchester (MAN) LS834 2019-11-18 16:17:00
Manchester (MAN) - Cote D Azur (NCE) LS833 2019-11-18 13:04:00
Son Sant Joan (PMI) - Manchester (MAN) LS832 2019-11-17 14:13:00
Manchester (MAN) - Son Sant Joan (PMI) LS831 2019-11-17 11:48:00
Arrecife Airport (ACE) - Manchester (MAN) LS4102 2019-11-17 00:37:00
Manchester (MAN) - Arrecife Airport (ACE) LS4101 2019-11-16 20:29:00
Son Sant Joan (PMI) - Manchester (MAN) LS832 2019-11-16 15:18:00
Manchester (MAN) - Son Sant Joan (PMI) LS831 2019-11-16 10:50:00
Madeira (FNC) - Manchester (MAN) LS766 2019-11-16 06:33:00
Manchester (MAN) - Madeira (FNC) LS765 2019-11-15 14:52:00
Fiumicino (FCO) - Manchester (MAN) LS792 2019-11-14 15:19:00
Manchester (MAN) - Fiumicino (FCO) LS791 2019-11-14 11:17:00
Pafos Intl (PFO) - Manchester (MAN) LS938 2019-11-14 08:40:00
Manchester (MAN) - Pafos Intl (PFO) LS937 2019-11-13 16:39:00
Fiumicino (FCO) - Manchester (MAN) LS792 2019-11-11 15:50:00
Manchester (MAN) - Fiumicino (FCO) LS791 2019-11-11 12:51:00
Time Lat Lon Altitude Heading Speed Vertical Rate
2019-11-09 13:12:21 GMT 53.357487 -2.278734 0 5 20 0
2019-11-09 13:12:13 GMT 53.356785 -2.278859 0 5 18 0
2019-11-09 13:12:02 GMT 53.356030 -2.279447 0 53 19 0
2019-11-09 13:11:41 GMT 53.354393 -2.281546 0 11 24 0
2019-11-09 13:11:34 GMT 53.353577 -2.281743 0 16 25 0
2019-11-09 13:11:20 GMT 53.352264 -2.283117 0 50 27 0
2019-11-09 13:11:07 GMT 53.351334 -2.285035 0 53 22 0
2019-11-09 13:11:03 GMT 53.351086 -2.285540 0 53 20 0
2019-11-09 13:10:52 GMT 53.350548 -2.286667 0 50 14 0
2019-11-09 13:10:43 GMT 53.350132 -2.287378 0 25 13 0
2019-11-09 13:10:39 GMT 53.349888 -2.287499 0 348 13 0
2019-11-09 13:10:30 GMT 53.349480 -2.287095 0 295 12 0
2019-11-09 13:10:21 GMT 53.349434 -2.286328 0 261 21 0
2019-11-09 13:10:18 GMT 53.349491 -2.285803 0 258 28 0
2019-11-09 13:10:12 GMT 53.349689 -2.284308 0 253 38 0
2019-11-09 13:10:08 GMT 53.349934 -2.283238 0 244 39 0
2019-11-09 13:09:59 GMT 53.350880 -2.280919 0 230 55 0
2019-11-09 13:09:49 GMT 53.352997 -2.276524 475 232 97 -256
2019-11-09 13:09:42 GMT 53.355148 -2.272070 475 232 135 -256
2019-11-09 13:09:37 GMT 53.357151 -2.267869 500 232 152 -128
2019-11-09 13:09:31 GMT 53.361511 -2.258946 575 231 159 -704
2019-11-09 13:09:27 GMT 53.361511 -2.258946 775 232 158 -960
2019-11-09 13:09:19 GMT 53.365528 -2.250743 700 232 158 -960
2019-11-09 13:09:15 GMT 53.367233 -2.247096 775 232 158 -896
2019-11-09 13:09:11 GMT 53.368881 -2.243634 1,175 231 158 -960
2019-11-09 13:09:07 GMT 53.370838 -2.239595 900 231 159 -1024
2019-11-09 13:08:59 GMT 53.374794 -2.231356 1,000 231 159 -896
2019-11-09 13:08:55 GMT 53.376656 -2.227559 1,025 231 159 -896
2019-11-09 13:08:50 GMT 53.378632 -2.223554 1,125 231 158 -960
2019-11-09 13:08:47 GMT 53.380234 -2.220180 1,175 232 158 -832
2019-11-09 13:08:44 GMT 53.381310 -2.217946 1,225 232 157 -896
2019-11-09 13:08:40 GMT 53.383221 -2.213987 1,275 232 157 -896
2019-11-09 13:08:37 GMT 53.384720 -2.210763 1,325 232 155 -896
2019-11-09 13:08:34 GMT 53.386047 -2.208017 1,375 231 155 -1024
2019-11-09 13:08:29 GMT 53.388474 -2.202994 1,425 231 155 -832
2019-11-09 13:08:26 GMT 53.389572 -2.200718 1,475 231 155 -768
2019-11-09 13:08:23 GMT 53.390808 -2.198129 1,525 231 162 -1024
2019-11-09 13:08:19 GMT 53.392902 -2.193792 1,575 232 156 -960
2019-11-09 13:08:14 GMT 53.395203 -2.188947 1,675 231 157 -832
2019-11-09 13:08:10 GMT 53.398537 -2.182159 1,750 232 162 -960
2019-11-09 13:08:07 GMT 53.398537 -2.182159 1,775 231 160 -960
2019-11-09 13:08:04 GMT 53.399979 -2.179170 1,850 232 186 0
2019-11-09 13:07:59 GMT 53.404861 -2.169172 1,925 232 167 -896
2019-11-09 13:07:54 GMT 53.406590 -2.165518 2,000 232 170 -768
2019-11-09 13:07:49 GMT 53.406590 -2.165518 2,000 232 170 -768
2019-11-09 13:07:46 GMT 53.408615 -2.161325 2,075 232 172 -896
2019-11-09 13:07:43 GMT 53.409805 -2.158813 2,325 231 176 -1024
2019-11-09 13:07:39 GMT 53.412037 -2.154047 2,200 232 175 -1088
2019-11-09 13:07:35 GMT 53.413879 -2.150181 2,275 231 176 -1024
2019-11-09 13:07:32 GMT 53.415386 -2.147019 2,325 232 178 -896
2019-11-09 13:07:29 GMT 53.417358 -2.142962 2,375 231 178 -1088
2019-11-09 13:07:26 GMT 53.418598 -2.140395 2,450 232 178 -1024
2019-11-09 13:07:22 GMT 53.420834 -2.135791 2,500 232 178 -1024
2019-11-09 13:07:19 GMT 53.422256 -2.132917 2,525 231 179 -1024
2019-11-09 13:07:16 GMT 53.424271 -2.128680 2,575 232 179 -1024
2019-11-09 13:07:13 GMT 53.425629 -2.125935 2,650 232 179 -1088
2019-11-09 13:07:07 GMT 53.429764 -2.117301 2,775 232 183 -960
2019-11-09 13:07:01 GMT 53.432968 -2.110631 2,925 231 186 -1024
2019-11-09 13:06:58 GMT 53.432968 -2.110631 2,900 232 186 -1024
2019-11-09 13:06:55 GMT 53.435032 -2.106305 2,950 231 186 -960
2019-11-09 13:06:51 GMT 53.436893 -2.102428 3,000 231 186 -1024
2019-11-09 13:06:48 GMT 53.438618 -2.098954 3,025 232 186 -1024
2019-11-09 13:06:45 GMT 53.440018 -2.095956 3,075 232 186 -1216
2019-11-09 13:06:42 GMT 53.442535 -2.090777 3,200 231 185 -960
2019-11-09 13:06:39 GMT 53.443359 -2.089050 3,250 232 185 -1088
2019-11-09 13:06:36 GMT 53.446766 -2.081990 3,325 232 184 -1088
2019-11-09 13:06:29 GMT 53.448952 -2.077466 3,425 231 184 -1024
2019-11-09 13:06:26 GMT 53.450722 -2.073750 3,475 232 184 -1024
2019-11-09 13:06:23 GMT 53.454071 -2.066764 3,500 232 185 -896
2019-11-09 13:06:19 GMT 53.454071 -2.066764 3,550 232 185 -832
2019-11-09 13:06:16 GMT 53.457138 -2.060172 3,625 234 190 -1088
2019-11-09 13:06:13 GMT 53.459702 -2.054443 3,725 234 190 -1152
2019-11-09 13:06:09 GMT 53.461845 -2.049596 3,775 233 190 -1280
2019-11-09 13:06:05 GMT 53.461845 -2.049596 3,825 233 190 -1216
2019-11-09 13:06:01 GMT 53.463913 -2.045183 3,900 231 190 -1216
2019-11-09 13:05:57 GMT 53.465897 -2.041034 4,000 231 189 -1088
2019-11-09 13:05:54 GMT 53.467758 -2.037318 4,025 231 189 -1024
2019-11-09 13:05:50 GMT 53.469669 -2.033279 4,100 234 190 -960
2019-11-09 13:05:47 GMT 53.471344 -2.029724 4,125 234 190 -960
2019-11-09 13:05:44 GMT 53.473392 -2.024716 4,225 242 195 -704
2019-11-09 13:05:41 GMT 53.474579 -2.021406 4,225 245 196 -640
2019-11-09 13:05:38 GMT 53.475769 -2.017168 4,250 249 199 -576
2019-11-09 13:05:35 GMT 53.476685 -2.012931 4,300 258 204 -576
2019-11-09 13:05:32 GMT 53.477116 -2.010094 4,425 263 204 -768
2019-11-09 13:05:29 GMT 53.477535 -2.005247 4,350 264 205 -768
2019-11-09 13:05:26 GMT 53.477921 -1.999904 4,375 264 205 -640
2019-11-09 13:05:23 GMT 53.478241 -1.995117 4,400 264 205 -704
2019-11-09 13:05:20 GMT 53.478745 -1.985622 4,475 269 209 -640
2019-11-09 13:05:17 GMT 53.478836 -1.980600 4,500 273 211 -704
2019-11-09 13:05:14 GMT 53.478241 -1.972517 4,550 281 214 -832
2019-11-09 13:05:10 GMT 53.478241 -1.972517 4,575 285 217 -960
2019-11-09 13:05:06 GMT 53.477444 -1.968088 4,600 290 220 -1088
2019-11-09 13:05:03 GMT 53.474854 -1.959019 4,825 308 223 -2112
2019-11-09 13:04:57 GMT 53.472839 -1.954468 5,000 317 224 -2240
2019-11-09 13:04:54 GMT 53.470688 -1.950387 5,025 319 224 -2368
2019-11-09 13:04:50 GMT 53.466156 -1.944423 5,275 326 223 -2560
2019-11-09 13:04:47 GMT 53.464874 -1.942964 5,325 327 222 -2560
2019-11-09 13:04:44 GMT 53.458820 -1.936421 8,725 328 220 -2496
2019-11-09 13:04:40 GMT 53.458820 -1.936421 8,725 332 269 -640
2019-11-09 13:04:37 GMT 53.455982 -1.933432 5,750 329 220 -2304
2019-11-09 13:04:34 GMT 53.453655 -1.931009 5,800 329 219 -2240
2019-11-09 13:04:31 GMT 53.448811 -1.926081 6,050 329 219 -2112
2019-11-09 13:04:25 GMT 53.445831 -1.923157 6,225 331 219 -2240
2019-11-09 13:04:22 GMT 53.443039 -1.920346 6,475 331 219 -2176
2019-11-09 13:04:19 GMT 53.439827 -1.917357 6,425 331 219 -2304
2019-11-09 13:04:16 GMT 53.437824 -1.915418 6,500 331 220 -2304
2019-11-09 13:04:13 GMT 53.435532 -1.913191 6,575 331 220 -2240
2019-11-09 13:04:10 GMT 53.432846 -1.910652 6,775 331 221 -2176
2019-11-09 13:04:07 GMT 53.429585 -1.907501 6,850 331 224 -1600
2019-11-09 13:04:04 GMT 53.427166 -1.905159 6,925 330 227 -1216
2019-11-09 13:03:58 GMT 53.421906 -1.900069 7,125 330 231 -1216
2019-11-09 13:03:55 GMT 53.418835 -1.897161 7,075 331 232 -1152
2019-11-09 13:03:52 GMT 53.415993 -1.894415 7,175 330 235 -1024
2019-11-09 13:03:49 GMT 53.413525 -1.892072 7,250 330 235 -1024
2019-11-09 13:03:46 GMT 53.410721 -1.889335 7,225 330 237 -960
2019-11-09 13:03:43 GMT 53.407661 -1.886336 7,275 331 238 -1024
2019-11-09 13:03:39 GMT 53.404587 -1.883449 7,350 331 242 -1216
2019-11-09 13:03:36 GMT 53.401051 -1.880116 7,575 332 245 -1984
2019-11-09 13:03:33 GMT 53.398209 -1.877450 7,525 332 245 -1856
2019-11-09 13:03:30 GMT 53.394718 -1.874300 7,625 332 245 -1984
2019-11-09 13:03:27 GMT 53.392300 -1.872119 7,700 333 245 -2112
2019-11-09 13:03:24 GMT 53.386292 -1.866787 7,925 332 246 -1984
2019-11-09 13:03:18 GMT 53.382381 -1.863314 8,000 332 247 -1920
2019-11-09 13:03:15 GMT 53.379448 -1.860648 8,125 332 248 -1856
2019-11-09 13:03:11 GMT 53.373871 -1.855669 8,500 332 249 -1920
2019-11-09 13:03:08 GMT 53.372040 -1.854021 8,375 332 250 -1984
2019-11-09 13:03:05 GMT 53.369934 -1.852138 8,475 332 250 -1920
2019-11-09 13:03:02 GMT 53.367485 -1.849904 8,500 332 251 -1856
2019-11-09 13:02:59 GMT 53.364029 -1.846802 8,875 333 258 -960
2019-11-09 13:02:56 GMT 53.360229 -1.843349 8,750 333 258 -1088
2019-11-09 13:02:53 GMT 53.357430 -1.840856 8,775 333 255 -1472
2019-11-09 13:02:50 GMT 53.354095 -1.837934 8,850 333 259 -704
2019-11-09 13:02:47 GMT 53.350914 -1.835201 8,875 333 262 -384
2019-11-09 13:02:44 GMT 53.347504 -1.832127 8,900 333 265 -320
2019-11-09 13:02:41 GMT 53.344574 -1.829616 8,900 333 267 -320
2019-11-09 13:02:38 GMT 53.337112 -1.823024 8,950 332 272 -640
2019-11-09 13:02:34 GMT 53.337112 -1.823024 9,150 332 274 -640
2019-11-09 13:02:31 GMT 53.333038 -1.819336 9,000 332 274 -640
2019-11-09 13:02:28 GMT 53.330338 -1.816903 9,025 332 275 -640
2019-11-09 13:02:25 GMT 53.327316 -1.814235 9,050 332 277 -640
2019-11-09 13:02:22 GMT 53.323681 -1.810967 9,100 332 282 -704
2019-11-09 13:02:19 GMT 53.319763 -1.807486 9,125 332 283 -768
2019-11-09 13:02:16 GMT 53.316326 -1.804424 9,150 332 284 -832
2019-11-09 13:02:13 GMT 53.312973 -1.801435 9,225 332 286 -960
2019-11-09 13:02:10 GMT 53.310135 -1.798930 9,250 332 287 -1024
2019-11-09 13:02:07 GMT 53.302734 -1.792341 9,425 332 289 -1408
2019-11-09 13:02:04 GMT 53.297333 -1.787476 9,425 332 290 -1408
2019-11-09 13:02:00 GMT 53.297333 -1.787476 9,475 332 290 -1408
2019-11-09 13:01:57 GMT 53.294724 -1.785121 9,550 332 291 -1408
2019-11-09 13:01:54 GMT 53.290787 -1.781590 9,625 332 293 -1408
2019-11-09 13:01:51 GMT 53.287697 -1.778816 9,650 332 293 -1408
2019-11-09 13:01:48 GMT 53.283039 -1.774615 9,875 332 296 -1344
2019-11-09 13:01:44 GMT 53.278381 -1.770368 9,850 332 295 -1344
2019-11-09 13:01:41 GMT 53.276230 -1.768406 9,875 332 296 -1344
2019-11-09 13:01:38 GMT 53.271820 -1.764356 9,975 332 298 -1152
2019-11-09 13:01:35 GMT 53.263069 -1.756278 10,075 332 301 -896
2019-11-09 13:01:32 GMT 53.263069 -1.756278 10,100 331 303 -896
2019-11-09 13:01:26 GMT 53.257187 -1.750828 10,175 331 306 -896
2019-11-09 13:01:23 GMT 53.253387 -1.747297 10,250 331 310 -896
2019-11-09 13:01:20 GMT 53.248993 -1.743295 10,250 331 314 -960
2019-11-09 13:01:17 GMT 53.245239 -1.739798 10,275 331 312 -896
2019-11-09 13:01:14 GMT 53.238350 -1.733416 10,375 331 316 -960
2019-11-09 13:01:11 GMT 53.233246 -1.728699 10,400 331 318 -1024
2019-11-09 13:01:08 GMT 53.233246 -1.728699 10,500 331 324 -1088
2019-11-09 13:01:04 GMT 53.229366 -1.725096 10,500 331 325 -1088
2019-11-09 13:01:01 GMT 53.224293 -1.720330 10,600 331 335 -1024
2019-11-09 13:00:58 GMT 53.218891 -1.715321 10,625 331 339 -1088
2019-11-09 13:00:55 GMT 53.217041 -1.713553 10,875 331 339 -1088
2019-11-09 13:00:52 GMT 53.213585 -1.710313 10,725 331 331 -960
2019-11-09 13:00:49 GMT 53.204739 -1.701992 10,825 331 335 -1024
2019-11-09 13:00:46 GMT 53.204739 -1.701992 10,850 331 338 -1024
2019-11-09 13:00:43 GMT 53.201065 -1.698565 10,875 331 340 -1088
2019-11-09 13:00:40 GMT 53.197632 -1.695347 10,925 331 342 -1088
2019-11-09 13:00:37 GMT 53.193375 -1.691345 10,950 331 344 -1088
2019-11-09 13:00:34 GMT 53.189190 -1.687452 11,025 331 347 -1152
2019-11-09 13:00:31 GMT 53.181461 -1.680181 11,175 331 354 -1280
2019-11-09 13:00:25 GMT 53.175797 -1.674787 11,225 331 355 -1408
2019-11-09 13:00:22 GMT 53.172226 -1.671413 11,275 331 357 -1536
2019-11-09 13:00:19 GMT 53.167915 -1.667337 13,375 332 380 -2944
2019-11-09 13:00:16 GMT 53.163254 -1.663016 11,725 331 361 -1856
2019-11-09 13:00:13 GMT 53.159042 -1.659092 11,775 332 366 -2176
2019-11-09 13:00:10 GMT 53.154648 -1.654977 11,650 332 364 -2048
2019-11-09 13:00:07 GMT 53.150085 -1.650777 11,725 332 365 -2176
2019-11-09 13:00:04 GMT 53.146362 -1.647400 11,875 332 367 -2176
2019-11-09 13:00:01 GMT 53.141613 -1.643102 11,925 332 368 -1984
2019-11-09 12:59:58 GMT 53.136200 -1.638140 12,125 331 373 -1792
2019-11-09 12:59:55 GMT 53.132446 -1.634687 12,150 331 373 -1984
2019-11-09 12:59:49 GMT 53.122948 -1.625815 12,400 331 376 -2752
2019-11-09 12:59:46 GMT 53.117798 -1.620954 12,475 331 376 -2880
2019-11-09 12:59:43 GMT 53.113403 -1.616874 12,700 331 376 -2816
2019-11-09 12:59:40 GMT 53.108688 -1.612558 12,825 331 378 -2624
2019-11-09 12:59:37 GMT 53.104248 -1.608398 12,950 332 379 -2560
2019-11-09 12:59:34 GMT 53.100414 -1.604893 13,050 332 379 -2624
2019-11-09 12:59:31 GMT 53.093388 -1.598432 13,125 332 380 -2752
2019-11-09 12:59:28 GMT 53.091064 -1.596298 13,425 332 380 -3072
2019-11-09 12:59:25 GMT 53.080723 -1.586818 13,625 331 382 -2752
2019-11-09 12:59:19 GMT 53.076416 -1.582794 13,750 331 383 -2752
2019-11-09 12:59:16 GMT 53.073349 -1.579895 13,975 331 383 -2880
2019-11-09 12:59:13 GMT 53.067642 -1.574576 14,100 331 382 -3456
2019-11-09 12:59:10 GMT 53.057121 -1.564924 14,375 332 381 -3904
2019-11-09 12:59:07 GMT 53.057121 -1.564924 14,525 332 380 -3840
2019-11-09 12:59:01 GMT 53.044922 -1.553879 14,825 332 386 0
2019-11-09 12:58:58 GMT 53.044922 -1.553879 14,925 332 383 -1152
2019-11-09 12:58:55 GMT 53.038734 -1.548209 14,975 332 385 -576
2019-11-09 12:58:51 GMT 53.028679 -1.539106 15,000 332 386 0
2019-11-09 12:58:48 GMT 53.028679 -1.539106 15,000 332 386 0
2019-11-09 12:58:44 GMT 53.022446 -1.533432 15,000 332 386 64
2019-11-09 12:58:41 GMT 53.017868 -1.529312 15,000 332 387 0
2019-11-09 12:58:38 GMT 53.012421 -1.524353 15,000 332 387 0
2019-11-09 12:58:34 GMT 53.006927 -1.519318 15,000 331 387 0
2019-11-09 12:58:31 GMT 53.002518 -1.515250 15,000 332 388 0
2019-11-09 12:58:28 GMT 52.997025 -1.510228 15,000 332 388 0
2019-11-09 12:58:25 GMT 52.994064 -1.507568 15,000 332 388 0
2019-11-09 12:58:22 GMT 52.988548 -1.502537 15,000 332 388 0
2019-11-09 12:58:19 GMT 52.981800 -1.496338 15,000 332 388 0
2019-11-09 12:58:16 GMT 52.980240 -1.494904 15,000 332 389 0
2019-11-09 12:58:13 GMT 52.973934 -1.489197 15,000 332 389 0
2019-11-09 12:58:10 GMT 52.968246 -1.484070 15,000 332 389 0
2019-11-09 12:58:07 GMT 52.965229 -1.481349 15,000 332 389 0
2019-11-09 12:58:04 GMT 52.959091 -1.475754 15,000 332 390 0
2019-11-09 12:58:01 GMT 52.955429 -1.472473 15,275 333 392 -192
2019-11-09 12:57:58 GMT 52.949249 -1.466904 15,000 332 390 64
2019-11-09 12:57:55 GMT 52.945587 -1.463623 15,000 332 391 64
2019-11-09 12:57:52 GMT 52.936363 -1.455296 15,000 332 392 64
2019-11-09 12:57:49 GMT 52.936363 -1.455296 14,975 332 392 64
2019-11-09 12:57:46 GMT 52.930176 -1.449724 14,975 332 392 0
2019-11-09 12:57:42 GMT 52.924587 -1.444781 15,000 332 393 -320
2019-11-09 12:57:39 GMT 52.917885 -1.438738 15,050 332 391 -640
2019-11-09 12:57:36 GMT 52.914688 -1.435928 15,200 332 390 -640
2019-11-09 12:57:33 GMT 52.910065 -1.431808 15,100 332 390 -640
2019-11-09 12:57:30 GMT 52.905121 -1.427460 15,150 332 390 -640
2019-11-09 12:57:27 GMT 52.901001 -1.423798 15,175 332 390 -576
2019-11-09 12:57:24 GMT 52.896889 -1.420140 15,200 332 389 -320
2019-11-09 12:57:21 GMT 52.892120 -1.415939 15,200 332 390 -192
2019-11-09 12:57:18 GMT 52.886414 -1.410880 15,225 332 390 -192
2019-11-09 12:57:15 GMT 52.882278 -1.407242 15,225 332 390 -192
2019-11-09 12:57:12 GMT 52.876099 -1.401749 15,225 332 390 -192
2019-11-09 12:57:09 GMT 52.866714 -1.393356 15,250 332 391 -128
2019-11-09 12:57:06 GMT 52.866714 -1.393356 15,250 332 391 -192
2019-11-09 12:57:03 GMT 52.863510 -1.390555 15,250 333 391 -192
2019-11-09 12:57:00 GMT 52.858383 -1.386032 15,300 345 395 -192
2019-11-09 12:56:57 GMT 52.853550 -1.382002 15,275 336 392 -256
2019-11-09 12:56:54 GMT 52.847260 -1.377258 15,300 341 393 -192
2019-11-09 12:56:50 GMT 52.840256 -1.372910 15,325 348 396 -192
2019-11-09 12:56:44 GMT 52.832108 -1.369324 15,325 348 396 -192
2019-11-09 12:56:41 GMT 52.824326 -1.367188 15,350 355 398 -256
2019-11-09 12:56:38 GMT 52.819382 -1.366348 15,375 1 400 -448
2019-11-09 12:56:35 GMT 52.813660 -1.366043 15,375 1 400 -448
2019-11-09 12:56:32 GMT 52.808113 -1.366385 15,400 5 400 -448
2019-11-09 12:56:29 GMT 52.803268 -1.367035 15,500 9 400 -448
2019-11-09 12:56:26 GMT 52.797958 -1.368179 15,425 9 401 -384
2019-11-09 12:56:23 GMT 52.793591 -1.369367 15,500 9 400 -384
2019-11-09 12:56:20 GMT 52.786469 -1.371408 15,475 9 400 -384
2019-11-09 12:56:17 GMT 52.782043 -1.372663 15,500 9 400 -448
2019-11-09 12:56:14 GMT 52.776039 -1.374311 15,550 9 399 -896
2019-11-09 12:56:11 GMT 52.771317 -1.375656 15,600 9 399 -960
2019-11-09 12:56:08 GMT 52.765472 -1.377372 15,575 9 399 -768
2019-11-09 12:56:05 GMT 52.759277 -1.379089 15,650 9 399 -960
2019-11-09 12:55:59 GMT 52.748573 -1.382237 15,725 10 399 -960
2019-11-09 12:55:56 GMT 52.742195 -1.384042 15,775 10 399 -960
2019-11-09 12:55:53 GMT 52.737309 -1.385533 15,800 10 399 -960
2019-11-09 12:55:50 GMT 52.727112 -1.388436 15,900 9 399 -1024
2019-11-09 12:55:44 GMT 52.722179 -1.389927 15,975 9 401 -1536
2019-11-09 12:55:41 GMT 52.714874 -1.391983 16,025 9 402 -1664
2019-11-09 12:55:38 GMT 52.704987 -1.394806 16,225 9 402 -2240
2019-11-09 12:55:35 GMT 52.704987 -1.394806 16,325 9 403 -2368
2019-11-09 12:55:32 GMT 52.699081 -1.396408 16,475 9 403 -2432
2019-11-09 12:55:29 GMT 52.693596 -1.397932 16,575 9 403 -2432
2019-11-09 12:55:26 GMT 52.688278 -1.399460 16,725 9 404 -2240
2019-11-09 12:55:23 GMT 52.682190 -1.401149 16,750 9 405 -2048
2019-11-09 12:55:20 GMT 52.677395 -1.402483 16,825 9 406 -1792
2019-11-09 12:55:17 GMT 52.671112 -1.404190 16,925 9 407 -1664
2019-11-09 12:55:14 GMT 52.664223 -1.406015 17,025 9 408 -1920
2019-11-09 12:55:11 GMT 52.659752 -1.407192 17,075 8 407 -2368
2019-11-09 12:55:08 GMT 52.648952 -1.409938 17,350 8 409 -2752
2019-11-09 12:55:05 GMT 52.642960 -1.411514 17,550 8 410 -2752
2019-11-09 12:55:02 GMT 52.642960 -1.411514 17,675 8 410 -2688
2019-11-09 12:54:59 GMT 52.637512 -1.412888 17,700 8 411 -2624
2019-11-09 12:54:56 GMT 52.632431 -1.414185 19,150 8 424 -2368
2019-11-09 12:54:53 GMT 52.626606 -1.415667 18,175 8 414 -2560
2019-11-09 12:54:50 GMT 52.620941 -1.417160 18,900 8 414 -2624
2019-11-09 12:54:47 GMT 52.613338 -1.419120 18,250 8 415 -2688
2019-11-09 12:54:44 GMT 52.603088 -1.421661 18,425 8 417 -2624
2019-11-09 12:54:41 GMT 52.603088 -1.421661 18,550 8 418 -2496
2019-11-09 12:54:38 GMT 52.598488 -1.422729 18,750 8 420 -2432
2019-11-09 12:54:35 GMT 52.591412 -1.424456 18,750 8 420 -2496
2019-11-09 12:54:32 GMT 52.587158 -1.425476 18,825 8 421 -2560
2019-11-09 12:54:29 GMT 52.574066 -1.428604 19,025 8 423 -2560
2019-11-09 12:54:26 GMT 52.574066 -1.428604 19,150 8 424 -2432
2019-11-09 12:54:23 GMT 52.568802 -1.429901 19,225 8 425 -2304
2019-11-09 12:54:20 GMT 52.561798 -1.431656 19,400 8 427 -2176
2019-11-09 12:54:17 GMT 52.557129 -1.432877 19,450 8 429 -2240
2019-11-09 12:54:14 GMT 52.552402 -1.434108 19,775 8 432 -2816
2019-11-09 12:54:11 GMT 52.545559 -1.435913 19,700 9 432 -2688
2019-11-09 12:54:08 GMT 52.539642 -1.437454 19,800 8 433 -3008
2019-11-09 12:54:05 GMT 52.526379 -1.440700 20,175 7 434 -3008
2019-11-09 12:54:02 GMT 52.521400 -1.441799 20,450 359 436 -2368
2019-11-09 12:53:59 GMT 52.521400 -1.441799 20,300 5 434 -2304
2019-11-09 12:53:56 GMT 52.515625 -1.442819 20,425 1 435 -2112
2019-11-09 12:53:53 GMT 52.509388 -1.443368 20,525 0 436 -2176
2019-11-09 12:53:50 GMT 52.502151 -1.443329 20,700 355 435 -2880
2019-11-09 12:53:47 GMT 52.497940 -1.442795 20,775 353 436 -3072
2019-11-09 12:53:44 GMT 52.491760 -1.441574 20,900 350 437 -2880
2019-11-09 12:53:41 GMT 52.486626 -1.440151 20,975 349 436 -2880
2019-11-09 12:53:38 GMT 52.472809 -1.433868 21,325 340 438 -3392
2019-11-09 12:53:35 GMT 52.472809 -1.433868 21,425 340 438 -3392
2019-11-09 12:53:32 GMT 52.463333 -1.428070 22,175 339 442 -3200
2019-11-09 12:53:29 GMT 52.457111 -1.424064 21,750 339 438 -3072
2019-11-09 12:53:26 GMT 52.457111 -1.424064 22,000 339 440 -3072
2019-11-09 12:53:23 GMT 52.452209 -1.420898 22,100 339 440 -3072
2019-11-09 12:53:20 GMT 52.447083 -1.417618 22,175 339 444 -3072
2019-11-09 12:53:17 GMT 52.438751 -1.412277 22,275 339 441 -3136
2019-11-09 12:53:14 GMT 52.433807 -1.409073 23,200 339 442 -3200
2019-11-09 12:53:11 GMT 52.422939 -1.402169 22,875 339 444 -3072
2019-11-09 12:53:08 GMT 52.416050 -1.397775 22,875 339 444 -3072
2019-11-09 12:53:05 GMT 52.411240 -1.394806 23,075 339 446 -3136
2019-11-09 12:53:02 GMT 52.411240 -1.394806 23,200 339 446 -3264
2019-11-09 12:52:59 GMT 52.406845 -1.391983 23,425 339 447 -3200
2019-11-09 12:52:56 GMT 52.399704 -1.387482 23,550 339 447 -3136
2019-11-09 12:52:53 GMT 52.392590 -1.383022 23,650 339 448 -3136
2019-11-09 12:52:50 GMT 52.383091 -1.377058 23,825 340 449 -3328
2019-11-09 12:52:47 GMT 52.383091 -1.377058 24,025 340 450 -3328
2019-11-09 12:52:44 GMT 52.372013 -1.370152 24,150 340 450 -3392
2019-11-09 12:52:41 GMT 52.372013 -1.370152 24,250 340 451 -3328
2019-11-09 12:52:38 GMT 52.365967 -1.366425 24,775 340 452 -3200
2019-11-09 12:52:35 GMT 52.359146 -1.362152 24,700 340 454 -3200
2019-11-09 12:52:32 GMT 52.347382 -1.354980 24,775 340 454 -3328
2019-11-09 12:52:29 GMT 52.347382 -1.354980 24,900 340 454 -3392
2019-11-09 12:52:26 GMT 52.341522 -1.351318 25,325 340 454 -3840
2019-11-09 12:52:23 GMT 52.335617 -1.347733 25,250 340 454 -3968
2019-11-09 12:52:20 GMT 52.329697 -1.344177 25,375 340 454 -4224
2019-11-09 12:52:17 GMT 52.324390 -1.340960 25,875 341 452 -4416
2019-11-09 12:52:14 GMT 52.318497 -1.337433 25,825 341 453 -4096
2019-11-09 12:52:11 GMT 52.312565 -1.333976 26,150 341 453 -3776
2019-11-09 12:52:08 GMT 52.299774 -1.326523 26,350 341 453 -3456
2019-11-09 12:52:05 GMT 52.299774 -1.326523 26,450 341 454 -3392
2019-11-09 12:52:02 GMT 52.294643 -1.323539 26,675 341 454 -3840
2019-11-09 12:51:59 GMT 52.287872 -1.319733 26,825 341 453 -4032
2019-11-09 12:51:56 GMT 52.283524 -1.317215 26,975 342 453 -4288
2019-11-09 12:51:53 GMT 52.275787 -1.312945 27,250 342 452 -4416
2019-11-09 12:51:50 GMT 52.264893 -1.306915 27,525 342 451 -4352
2019-11-09 12:51:47 GMT 52.260178 -1.304321 27,775 342 452 -4224
2019-11-09 12:51:44 GMT 52.260178 -1.304321 27,900 342 452 -3904
2019-11-09 12:51:41 GMT 52.252232 -1.299997 30,850 343 440 -6016
2019-11-09 12:51:38 GMT 52.246307 -1.296844 28,325 342 449 -4480
2019-11-09 12:51:35 GMT 52.241154 -1.294111 28,650 343 445 -5824
2019-11-09 12:51:32 GMT 52.234131 -1.290359 28,750 343 444 -6016
2019-11-09 12:51:29 GMT 52.230011 -1.288147 29,275 343 436 -5952
2019-11-09 12:51:26 GMT 52.222092 -1.284027 30,775 344 433 -5888
2019-11-09 12:51:23 GMT 52.217087 -1.281555 29,750 344 433 -5888
2019-11-09 12:51:20 GMT 52.211334 -1.278687 30,650 344 429 -5376
2019-11-09 12:51:17 GMT 52.204472 -1.275434 30,375 345 428 -4672
2019-11-09 12:51:11 GMT 52.193985 -1.270523 30,725 345 428 -3136
2019-11-09 12:51:08 GMT 52.188503 -1.267979 30,875 345 429 -1920
2019-11-09 12:51:05 GMT 52.181854 -1.264954 30,950 345 430 -1152
2019-11-09 12:51:02 GMT 52.176315 -1.262360 30,975 345 432 -640
2019-11-09 12:50:59 GMT 52.171280 -1.260071 31,025 345 435 -576
2019-11-09 12:50:56 GMT 52.166473 -1.257782 31,025 344 438 -704
2019-11-09 12:50:53 GMT 52.155579 -1.252747 31,100 344 442 -1152
2019-11-09 12:50:50 GMT 52.148712 -1.249542 31,425 344 444 -1792
2019-11-09 12:50:47 GMT 52.148712 -1.249542 31,200 344 443 -1472
2019-11-09 12:50:44 GMT 52.142788 -1.246791 31,275 344 443 -2560
2019-11-09 12:50:41 GMT 52.132370 -1.241913 31,425 344 443 -1984
2019-11-09 12:50:35 GMT 52.124313 -1.238022 31,550 344 443 -2560
2019-11-09 12:50:32 GMT 52.118637 -1.235275 31,700 344 442 -3392
2019-11-09 12:50:29 GMT 52.106667 -1.229449 32,000 343 443 -2752
2019-11-09 12:50:26 GMT 52.106667 -1.229449 32,775 343 444 -2816
2019-11-09 12:50:23 GMT 52.100986 -1.226545 32,175 343 444 -2880
2019-11-09 12:50:20 GMT 52.094933 -1.223406 32,400 343 444 -2944
2019-11-09 12:50:17 GMT 52.087921 -1.219711 32,525 342 445 -2880
2019-11-09 12:50:14 GMT 52.083801 -1.217575 32,975 342 445 -2816
2019-11-09 12:50:11 GMT 52.077347 -1.214066 32,700 342 447 -2304
2019-11-09 12:50:08 GMT 52.072681 -1.211557 32,825 342 448 -2048
2019-11-09 12:50:05 GMT 52.064999 -1.207319 32,950 342 450 -2176
2019-11-09 12:50:02 GMT 52.061089 -1.205200 33,150 342 451 -3008
2019-11-09 12:49:59 GMT 52.053551 -1.201198 33,250 342 451 -3328
2019-11-09 12:49:56 GMT 52.048008 -1.198216 33,400 343 451 -3520
2019-11-09 12:49:53 GMT 52.044067 -1.196136 33,625 343 451 -3392
2019-11-09 12:49:50 GMT 52.030563 -1.189117 33,850 343 451 -2944
2019-11-09 12:49:47 GMT 52.030563 -1.189117 33,875 343 451 -3008
2019-11-09 12:49:44 GMT 52.017239 -1.182286 34,200 343 450 -3072
2019-11-09 12:49:41 GMT 52.017239 -1.182286 34,225 343 450 -3008
2019-11-09 12:49:38 GMT 52.012115 -1.179581 34,450 342 449 -2880
2019-11-09 12:49:35 GMT 52.004578 -1.175616 34,525 342 449 -2880
2019-11-09 12:49:32 GMT 52.000851 -1.173654 34,675 342 449 -2880
2019-11-09 12:49:29 GMT 51.993347 -1.169662 34,800 342 448 -2944
2019-11-09 12:49:26 GMT 51.981766 -1.163452 35,750 342 448 -1984
2019-11-09 12:49:23 GMT 51.976460 -1.160627 35,250 342 448 -2624
2019-11-09 12:49:20 GMT 51.976460 -1.160627 35,250 342 448 -2624
2019-11-09 12:49:17 GMT 51.970734 -1.157645 35,400 342 448 -2368
2019-11-09 12:49:14 GMT 51.965843 -1.154977 35,525 342 450 -960
2019-11-09 12:49:11 GMT 51.958164 -1.150896 35,550 342 449 -1600
2019-11-09 12:49:08 GMT 51.952652 -1.147919 35,625 342 450 -1152
2019-11-09 12:49:05 GMT 51.941635 -1.141950 35,725 342 450 -1024
2019-11-09 12:49:02 GMT 51.941635 -1.141950 35,800 342 450 -960
2019-11-09 12:48:59 GMT 51.935909 -1.138811 35,800 342 449 -1024
2019-11-09 12:48:56 GMT 51.929581 -1.135406 35,850 342 449 -960
2019-11-09 12:48:53 GMT 51.924458 -1.132690 35,900 342 450 -960
2019-11-09 12:48:50 GMT 51.918549 -1.129456 35,925 342 450 -960
2019-11-09 12:48:47 GMT 51.912048 -1.125946 36,000 342 449 -960
2019-11-09 12:48:44 GMT 51.906910 -1.123195 36,050 342 449 -960
2019-11-09 12:48:41 GMT 51.900238 -1.119614 36,050 342 450 -896
2019-11-09 12:48:38 GMT 51.894295 -1.116446 36,150 342 450 -960
2019-11-09 12:48:35 GMT 51.888382 -1.113257 36,175 342 450 -960
2019-11-09 12:48:32 GMT 51.880840 -1.109238 36,200 342 451 -960
2019-11-09 12:48:29 GMT 51.875336 -1.106279 36,275 342 452 -960
2019-11-09 12:48:26 GMT 51.870178 -1.103516 36,325 342 452 -960
2019-11-09 12:48:23 GMT 51.863613 -1.100082 36,350 342 452 -960
2019-11-09 12:48:20 GMT 51.859268 -1.097742 36,400 342 452 -960
2019-11-09 12:48:17 GMT 51.846954 -1.091210 37,550 343 458 -960
2019-11-09 12:48:14 GMT 51.846954 -1.091210 36,550 342 452 -1024
2019-11-09 12:48:11 GMT 51.840775 -1.087943 36,575 342 452 -1024
2019-11-09 12:48:08 GMT 51.834641 -1.084677 36,600 342 452 -1024
2019-11-09 12:48:05 GMT 51.827492 -1.080856 36,675 342 452 -960
2019-11-09 12:48:02 GMT 51.823349 -1.078568 36,750 342 454 -960
2019-11-09 12:47:59 GMT 51.815781 -1.074582 36,750 342 454 -960
2019-11-09 12:47:56 GMT 51.804245 -1.068420 36,825 342 454 -960
2019-11-09 12:47:53 GMT 51.804245 -1.068420 36,875 342 454 -960
2019-11-09 12:47:50 GMT 51.798908 -1.065521 36,925 342 454 -960
2019-11-09 12:47:47 GMT 51.792938 -1.062333 36,950 342 455 -960
2019-11-09 12:47:44 GMT 51.786346 -1.058844 37,025 342 456 -1024
2019-11-09 12:47:41 GMT 51.781170 -1.056061 37,050 342 455 -1024
2019-11-09 12:47:38 GMT 51.775589 -1.053054 37,100 342 454 -1024
2019-11-09 12:47:35 GMT 51.767990 -1.049046 37,150 342 456 -1024
2019-11-09 12:47:32 GMT 51.764225 -1.047058 37,200 342 456 -1024
2019-11-09 12:47:29 GMT 51.755997 -1.042736 37,250 343 458 -960
2019-11-09 12:47:26 GMT 51.752380 -1.040880 37,550 342 459 -1024
2019-11-09 12:47:23 GMT 51.738853 -1.033859 37,375 342 459 -960
2019-11-09 12:47:20 GMT 51.738853 -1.033859 37,425 342 459 -960
2019-11-09 12:47:17 GMT 51.731594 -1.030045 37,450 342 459 -960
2019-11-09 12:47:14 GMT 51.726562 -1.027370 37,500 342 459 -960
2019-11-09 12:47:11 GMT 51.721527 -1.024698 37,950 342 460 0
2019-11-09 12:47:08 GMT 51.714043 -1.020813 37,575 342 459 -1088
2019-11-09 12:47:05 GMT 51.707432 -1.017303 38,000 342 460 -1152
2019-11-09 12:47:02 GMT 51.696308 -1.011429 37,725 342 460 -1088
2019-11-09 12:46:59 GMT 51.690441 -1.008301 37,825 342 460 -1152
2019-11-09 12:46:53 GMT 51.680386 -1.002960 37,900 342 460 -1088
2019-11-09 12:46:47 GMT 51.672520 -0.998840 37,975 342 460 -640
2019-11-09 12:46:44 GMT 51.667072 -0.995941 37,975 342 460 -448
2019-11-09 12:46:41 GMT 51.660786 -0.992661 38,000 342 460 0
2019-11-09 12:46:38 GMT 51.655342 -0.989761 38,000 342 460 0
2019-11-09 12:46:35 GMT 51.648312 -0.986023 38,000 342 459 0
2019-11-09 12:46:32 GMT 51.642445 -0.982971 38,000 342 459 0
2019-11-09 12:46:29 GMT 51.636383 -0.979787 38,000 342 459 0
2019-11-09 12:46:26 GMT 51.630569 -0.976670 38,000 342 459 0
2019-11-09 12:46:23 GMT 51.624710 -0.973626 38,000 342 459 0
2019-11-09 12:46:20 GMT 51.618851 -0.970508 38,000 342 458 0
2019-11-09 12:46:17 GMT 51.611023 -0.966351 38,000 342 458 0
2019-11-09 12:46:14 GMT 51.604179 -0.962753 38,000 342 458 0
2019-11-09 12:46:11 GMT 51.599945 -0.960541 38,000 342 458 0
2019-11-09 12:46:08 GMT 51.594681 -0.957815 38,000 342 458 0
2019-11-09 12:46:05 GMT 51.582813 -0.951614 38,000 342 457 0
2019-11-09 12:46:02 GMT 51.582813 -0.951614 38,000 342 458 0
2019-11-09 12:45:59 GMT 51.575592 -0.947793 38,000 342 458 64
2019-11-09 12:45:56 GMT 51.568954 -0.944305 38,000 342 458 64
2019-11-09 12:45:53 GMT 51.563309 -0.941391 38,000 342 457 -64
2019-11-09 12:45:50 GMT 51.557281 -0.938218 38,000 342 457 64
2019-11-09 12:45:47 GMT 51.552460 -0.935669 38,000 342 458 0
2019-11-09 12:45:44 GMT 51.546066 -0.932279 38,000 342 458 0
2019-11-09 12:45:41 GMT 51.538193 -0.928122 38,000 342 457 0
2019-11-09 12:45:38 GMT 51.531601 -0.924633 38,000 342 457 -64
2019-11-09 12:45:35 GMT 51.524761 -0.921021 38,000 342 457 0
2019-11-09 12:45:32 GMT 51.520943 -0.919037 38,000 342 457 0
2019-11-09 12:45:29 GMT 51.514526 -0.915651 38,000 342 457 0
2019-11-09 12:45:26 GMT 51.510704 -0.913620 38,000 342 457 0
2019-11-09 12:45:23 GMT 51.504280 -0.910263 38,000 342 457 0
2019-11-09 12:45:20 GMT 51.498276 -0.907040 38,000 342 457 0
2019-11-09 12:45:17 GMT 51.490639 -0.903015 38,000 342 457 0
2019-11-09 12:45:14 GMT 51.485001 -0.900062 38,000 342 457 0
2019-11-09 12:45:11 GMT 51.480209 -0.897598 38,000 342 457 -64
2019-11-09 12:45:08 GMT 51.472549 -0.893530 38,000 342 457 -64
2019-11-09 12:45:05 GMT 51.467926 -0.891155 38,000 342 457 0
2019-11-09 12:45:02 GMT 51.460705 -0.887375 38,000 342 457 0
2019-11-09 12:44:59 GMT 51.449486 -0.881424 38,000 342 456 0
2019-11-09 12:44:56 GMT 51.440094 -0.876457 38,000 342 457 64
2019-11-09 12:44:50 GMT 51.437256 -0.874972 38,000 345 458 0
2019-11-09 12:44:47 GMT 51.423882 -0.868683 38,000 345 458 0
2019-11-09 12:44:44 GMT 51.418156 -0.866318 38,000 347 459 0
2019-11-09 12:44:41 GMT 51.418156 -0.866318 38,000 347 459 -64
2019-11-09 12:44:38 GMT 51.413830 -0.864639 38,000 348 459 -64
2019-11-09 12:44:35 GMT 51.408241 -0.862656 38,000 348 459 -64
2019-11-09 12:44:32 GMT 51.399536 -0.859680 38,000 348 459 -64
2019-11-09 12:44:29 GMT 51.394321 -0.857849 38,025 348 459 -64
2019-11-09 12:44:26 GMT 51.381100 -0.853348 38,025 348 459 0
2019-11-09 12:44:23 GMT 51.381100 -0.853348 38,025 349 458 0
2019-11-09 12:44:20 GMT 51.374863 -0.851292 38,000 349 458 64
2019-11-09 12:44:17 GMT 51.368454 -0.849065 38,000 349 458 64
2019-11-09 12:44:14 GMT 51.364746 -0.847803 38,000 349 458 64
2019-11-09 12:44:11 GMT 51.356049 -0.844908 38,000 349 458 64
2019-11-09 12:44:08 GMT 51.349400 -0.842743 38,000 349 458 64
2019-11-09 12:44:05 GMT 51.343826 -0.840899 38,000 349 458 0
2019-11-09 12:44:02 GMT 51.337994 -0.839005 38,000 349 458 0
2019-11-09 12:43:59 GMT 51.330963 -0.836668 38,000 349 458 -64
2019-11-09 12:43:56 GMT 51.324097 -0.834441 38,000 349 458 -64
2019-11-09 12:43:53 GMT 51.319141 -0.832825 38,000 349 457 0
2019-11-09 12:43:50 GMT 51.314392 -0.831223 38,000 349 457 -64
2019-11-09 12:43:47 GMT 51.306709 -0.828705 38,000 349 457 0
2019-11-09 12:43:44 GMT 51.300522 -0.826721 38,000 349 457 0
2019-11-09 12:43:41 GMT 51.295761 -0.825088 38,000 349 456 0
2019-11-09 12:43:38 GMT 51.289398 -0.823010 38,000 349 455 0
2019-11-09 12:43:35 GMT 51.281754 -0.820411 38,000 349 455 0
2019-11-09 12:43:32 GMT 51.275757 -0.818407 38,000 349 455 -64
2019-11-09 12:43:29 GMT 51.265091 -0.814844 38,000 350 455 -64
2019-11-09 12:43:23 GMT 51.257446 -0.812469 38,000 353 455 0
2019-11-09 12:43:20 GMT 51.250168 -0.810464 38,000 352 455 0
2019-11-09 12:43:17 GMT 51.243759 -0.808980 38,000 353 455 64
2019-11-09 12:43:14 GMT 51.237907 -0.807724 38,000 354 456 0
2019-11-09 12:43:11 GMT 51.232273 -0.806732 38,000 355 455 0
2019-11-09 12:43:08 GMT 51.224918 -0.805664 38,000 358 457 128
2019-11-09 12:43:05 GMT 51.219452 -0.805045 38,000 358 456 64
2019-11-09 12:43:02 GMT 51.214397 -0.804672 38,000 358 457 128
2019-11-09 12:42:59 GMT 51.206997 -0.804291 38,000 359 457 64
2019-11-09 12:42:56 GMT 51.201965 -0.804080 38,000 2 456 -64
2019-11-09 12:42:53 GMT 51.194798 -0.803833 38,000 359 456 -64
2019-11-09 12:42:50 GMT 51.188702 -0.803528 38,000 359 456 -128
2019-11-09 12:42:47 GMT 51.182602 -0.803299 38,000 359 455 -128
2019-11-09 12:42:44 GMT 51.177338 -0.803041 38,000 359 455 -64
2019-11-09 12:42:41 GMT 51.168503 -0.802596 38,000 359 454 0
2019-11-09 12:42:38 GMT 51.163696 -0.802373 38,000 359 454 64
2019-11-09 12:42:35 GMT 51.157837 -0.802078 38,000 359 454 0
2019-11-09 12:42:32 GMT 51.150284 -0.801631 38,000 359 454 0
2019-11-09 12:42:29 GMT 51.145706 -0.801482 38,000 359 454 0
2019-11-09 12:42:26 GMT 51.138153 -0.801260 38,000 1 455 -64
2019-11-09 12:42:23 GMT 51.131393 -0.801392 38,000 2 455 -64
2019-11-09 12:42:20 GMT 51.125343 -0.801620 38,000 4 457 0
2019-11-09 12:42:17 GMT 51.119431 -0.802002 38,000 6 457 0
2019-11-09 12:42:14 GMT 51.111649 -0.802744 38,000 4 456 0
2019-11-09 12:42:11 GMT 51.106209 -0.803452 38,000 5 457 0
2019-11-09 12:42:08 GMT 51.094246 -0.805511 38,000 7 457 0
2019-11-09 12:42:02 GMT 51.086052 -0.807343 38,000 9 459 64
2019-11-09 12:41:59 GMT 51.081257 -0.808563 38,000 10 459 64
2019-11-09 12:41:56 GMT 51.075207 -0.810242 38,000 11 460 0
2019-11-09 12:41:53 GMT 51.069992 -0.811844 38,000 13 461 0
2019-11-09 12:41:50 GMT 51.063103 -0.814285 38,000 15 462 -64
2019-11-09 12:41:47 GMT 51.056725 -0.816727 38,000 17 464 0
2019-11-09 12:41:44 GMT 51.042713 -0.822983 38,000 17 463 0
2019-11-09 12:41:41 GMT 51.042713 -0.822983 38,000 18 463 64
2019-11-09 12:41:38 GMT 51.037857 -0.825459 38,000 18 464 64
2019-11-09 12:41:35 GMT 51.031727 -0.828629 38,000 18 463 128
2019-11-09 12:41:32 GMT 51.024399 -0.832437 38,000 18 464 64
2019-11-09 12:41:29 GMT 51.020508 -0.834427 38,000 18 464 64
2019-11-09 12:41:26 GMT 51.012966 -0.838318 38,000 18 464 0
2019-11-09 12:41:23 GMT 51.008926 -0.840454 38,000 18 464 0
2019-11-09 12:41:20 GMT 51.001793 -0.844116 38,000 18 464 0
2019-11-09 12:41:17 GMT 50.995045 -0.847626 38,000 18 465 128
2019-11-09 12:41:14 GMT 50.989151 -0.850698 37,975 18 465 64
2019-11-09 12:41:11 GMT 50.982197 -0.854263 37,975 18 465 64
2019-11-09 12:41:08 GMT 50.978119 -0.856414 38,000 18 465 -128
2019-11-09 12:41:05 GMT 50.971802 -0.859680 38,000 18 465 -128
2019-11-09 12:41:02 GMT 50.964661 -0.863392 38,000 18 465 -128
2019-11-09 12:40:59 GMT 50.958546 -0.866547 38,000 18 465 -128
2019-11-09 12:40:56 GMT 50.953426 -0.869217 38,000 18 465 64
2019-11-09 12:40:53 GMT 50.947140 -0.872498 38,000 18 465 -64
2019-11-09 12:40:50 GMT 50.939972 -0.876236 38,000 18 465 0
2019-11-09 12:40:47 GMT 50.934677 -0.878980 38,000 18 465 0
2019-11-09 12:40:44 GMT 50.928360 -0.882247 38,000 18 465 -64
2019-11-09 12:40:41 GMT 50.922455 -0.885290 38,000 18 465 -64
2019-11-09 12:40:38 GMT 50.914276 -0.889587 38,000 18 465 0
2019-11-09 12:40:35 GMT 50.903229 -0.895237 38,000 18 465 64
2019-11-09 12:40:32 GMT 50.903229 -0.895237 38,000 18 465 64
2019-11-09 12:40:29 GMT 50.892609 -0.900730 38,000 18 465 64
2019-11-09 12:40:26 GMT 50.892609 -0.900730 38,000 18 465 0
2019-11-09 12:40:23 GMT 50.885056 -0.904591 38,000 17 465 -64
2019-11-09 12:40:20 GMT 50.878281 -0.908079 38,000 17 466 -64
2019-11-09 12:40:17 GMT 50.873356 -0.910568 38,000 17 466 -64
2019-11-09 12:40:14 GMT 50.866234 -0.914230 38,000 18 467 0
2019-11-09 12:40:11 GMT 50.853943 -0.920563 38,000 18 467 0
2019-11-09 12:40:08 GMT 50.853943 -0.920563 38,000 18 466 -64
2019-11-09 12:40:05 GMT 50.847977 -0.923594 38,000 18 467 -64
2019-11-09 12:40:02 GMT 50.843098 -0.926208 38,000 17 466 -64
2019-11-09 12:39:59 GMT 50.835297 -0.930126 38,000 16 467 0
2019-11-09 12:39:56 GMT 50.828888 -0.933170 38,000 16 466 0
2019-11-09 12:39:53 GMT 50.821404 -0.936508 38,000 14 466 -64
2019-11-09 12:39:50 GMT 50.816437 -0.938589 38,000 13 466 0
2019-11-09 12:39:47 GMT 50.811626 -0.940475 38,000 13 465 0
2019-11-09 12:39:44 GMT 50.798172 -0.945121 38,000 11 466 64
2019-11-09 12:39:41 GMT 50.798172 -0.945121 38,000 11 466 0
2019-11-09 12:39:38 GMT 50.791855 -0.947200 38,000 11 467 0
2019-11-09 12:39:35 GMT 50.785511 -0.949173 38,000 11 467 0
2019-11-09 12:39:32 GMT 50.781281 -0.950540 38,000 11 467 0
2019-11-09 12:39:29 GMT 50.773041 -0.953212 38,000 11 467 0
2019-11-09 12:39:26 GMT 50.769012 -0.954474 38,000 11 468 0
2019-11-09 12:39:23 GMT 50.752945 -0.959671 38,000 11 468 -64
2019-11-09 12:39:17 GMT 50.748505 -0.961081 38,000 11 468 0
2019-11-09 12:39:14 GMT 50.742126 -0.963135 38,000 11 468 0
2019-11-09 12:39:11 GMT 50.735561 -0.965195 38,000 11 468 0
2019-11-09 12:39:08 GMT 50.730068 -0.966949 38,000 11 468 64
2019-11-09 12:39:05 GMT 50.721363 -0.969772 38,000 11 468 64
2019-11-09 12:38:59 GMT 50.708652 -0.973816 38,000 11 469 0
2019-11-09 12:38:56 GMT 50.703140 -0.975556 38,000 11 469 -64
2019-11-09 12:38:53 GMT 50.696552 -0.977631 38,000 11 469 -64
2019-11-09 12:38:50 GMT 50.688915 -0.980072 38,000 11 468 -64
2019-11-09 12:38:47 GMT 50.686157 -0.980901 38,000 11 468 -64
2019-11-09 12:38:44 GMT 50.678284 -0.983351 38,000 11 467 0
2019-11-09 12:38:41 GMT 50.672150 -0.985206 38,000 11 467 0
2019-11-09 12:38:38 GMT 50.665779 -0.987211 38,000 11 467 64
2019-11-09 12:38:35 GMT 50.652420 -0.991368 38,000 11 467 64
2019-11-09 12:38:32 GMT 50.652420 -0.991368 38,000 11 467 64
2019-11-09 12:38:29 GMT 50.646057 -0.993323 38,000 11 467 0
2019-11-09 12:38:26 GMT 50.639099 -0.995491 38,000 11 467 0
2019-11-09 12:38:23 GMT 50.632729 -0.997455 38,000 11 467 0
2019-11-09 12:38:20 GMT 50.626583 -0.999385 38,000 11 467 0
2019-11-09 12:38:17 GMT 50.620438 -1.001240 38,000 11 467 0
2019-11-09 12:38:14 GMT 50.607971 -1.005104 38,000 11 466 -64
2019-11-09 12:38:11 GMT 50.600327 -1.007476 38,000 10 466 -64
2019-11-09 12:38:08 GMT 50.600327 -1.007476 38,000 10 466 -64
2019-11-09 12:38:05 GMT 50.595905 -1.008812 38,000 11 464 64
2019-11-09 12:38:02 GMT 50.589340 -1.010816 38,000 10 466 -64
2019-11-09 12:37:59 GMT 50.581520 -1.013118 38,000 10 466 -64
2019-11-09 12:37:56 GMT 50.577702 -1.014305 38,025 11 465 0
2019-11-09 12:37:53 GMT 50.571186 -1.016310 38,025 11 465 0
2019-11-09 12:37:50 GMT 50.562294 -1.018982 38,000 11 465 64
2019-11-09 12:37:47 GMT 50.558941 -1.020021 38,000 11 464 64
2019-11-09 12:37:44 GMT 50.552628 -1.022018 38,000 11 464 64
2019-11-09 12:37:41 GMT 50.537476 -1.026643 38,000 11 464 64
2019-11-09 12:37:38 GMT 50.530106 -1.028956 38,000 11 464 64
2019-11-09 12:37:35 GMT 50.530106 -1.028956 38,000 11 464 0
2019-11-09 12:37:32 GMT 50.524841 -1.030546 38,000 11 464 -64
2019-11-09 12:37:29 GMT 50.517883 -1.032715 38,000 11 464 -64
2019-11-09 12:37:26 GMT 50.512436 -1.034422 38,000 11 464 64
2019-11-09 12:37:23 GMT 50.505249 -1.036618 38,000 11 464 0
2019-11-09 12:37:20 GMT 50.501038 -1.037919 38,000 11 464 0
2019-11-09 12:37:17 GMT 50.495361 -1.039654 38,000 11 464 0
2019-11-09 12:37:14 GMT 50.489067 -1.041548 38,000 11 464 0
2019-11-09 12:37:11 GMT 50.474945 -1.045870 38,000 11 464 0
2019-11-09 12:37:08 GMT 50.469051 -1.047710 38,000 11 464 0
2019-11-09 12:37:05 GMT 50.469051 -1.047710 38,000 11 464 0
2019-11-09 12:37:02 GMT 50.460663 -1.050279 38,000 11 464 0
2019-11-09 12:36:58 GMT 50.452011 -1.052953 38,000 11 464 0
2019-11-09 12:36:55 GMT 50.449081 -1.053820 38,000 11 464 0
2019-11-09 12:36:52 GMT 50.441528 -1.056133 38,000 11 462 0
2019-11-09 12:36:49 GMT 50.435623 -1.057954 38,000 11 463 0
2019-11-09 12:36:46 GMT 50.427658 -1.060470 38,000 11 463 0
2019-11-09 12:36:43 GMT 50.416306 -1.063966 38,000 11 464 64
2019-11-09 12:36:40 GMT 50.416306 -1.063966 38,000 11 463 0
2019-11-09 12:36:37 GMT 50.408951 -1.066193 38,000 11 463 0
2019-11-09 12:36:33 GMT 50.402851 -1.068123 38,000 11 463 0
2019-11-09 12:36:30 GMT 50.387283 -1.072902 38,000 11 463 0
2019-11-09 12:36:27 GMT 50.387283 -1.072902 38,000 11 463 0
2019-11-09 12:36:21 GMT 50.376366 -1.076215 38,000 11 463 0
2019-11-09 12:36:18 GMT 50.369427 -1.078367 38,000 11 463 0
2019-11-09 12:36:15 GMT 50.363331 -1.080223 38,000 11 463 0
2019-11-09 12:36:12 GMT 50.356396 -1.082302 38,000 11 464 64
2019-11-09 12:36:09 GMT 50.350937 -1.084033 38,000 11 464 64
2019-11-09 12:36:06 GMT 50.345856 -1.085550 38,000 11 464 0
2019-11-09 12:36:03 GMT 50.331985 -1.089743 38,000 11 464 0
2019-11-09 12:36:00 GMT 50.324615 -1.092055 38,000 11 464 0
2019-11-09 12:35:57 GMT 50.324615 -1.092055 38,000 11 464 0
2019-11-09 12:35:54 GMT 50.320408 -1.093288 38,000 11 464 0
2019-11-09 12:35:51 GMT 50.311798 -1.095960 38,000 11 464 0
2019-11-09 12:35:48 GMT 50.308025 -1.097074 38,000 11 464 0
2019-11-09 12:35:45 GMT 50.301460 -1.099078 38,000 11 464 0
2019-11-09 12:35:42 GMT 50.294106 -1.101305 38,000 11 464 0
2019-11-09 12:35:39 GMT 50.289047 -1.102825 38,000 11 464 0
2019-11-09 12:35:35 GMT 50.280853 -1.105355 38,000 11 464 0
2019-11-09 12:35:32 GMT 50.275394 -1.107021 38,000 11 464 0
2019-11-09 12:35:29 GMT 50.267616 -1.109396 38,000 11 463 0
2019-11-09 12:35:26 GMT 50.260025 -1.111715 38,000 11 464 0
2019-11-09 12:35:23 GMT 50.254768 -1.113331 38,000 11 463 0
2019-11-09 12:35:20 GMT 50.250347 -1.114667 38,000 11 463 0
2019-11-09 12:35:17 GMT 50.241734 -1.117339 38,000 11 463 0
2019-11-09 12:35:14 GMT 50.236477 -1.118972 38,000 11 463 0
2019-11-09 12:35:11 GMT 50.228897 -1.121256 38,000 11 463 0
2019-11-09 12:35:05 GMT 50.216949 -1.124942 38,000 11 463 0
2019-11-09 12:35:02 GMT 50.209801 -1.127138 38,000 11 463 0
2019-11-09 12:34:59 GMT 50.203491 -1.129062 38,000 11 463 0
2019-11-09 12:34:56 GMT 50.198227 -1.130652 38,000 11 463 0
2019-11-09 12:34:53 GMT 50.192158 -1.132557 38,000 11 463 0
2019-11-09 12:34:50 GMT 50.187103 -1.134049 38,000 11 463 0
2019-11-09 12:34:47 GMT 50.171997 -1.138675 38,000 11 462 0
2019-11-09 12:34:44 GMT 50.166553 -1.140351 38,000 11 462 0
2019-11-09 12:34:41 GMT 50.166553 -1.140351 38,000 11 462 0
2019-11-09 12:34:38 GMT 50.158779 -1.142801 38,000 11 462 0
2019-11-09 12:34:35 GMT 50.153366 -1.144457 38,000 11 462 0
2019-11-09 12:34:32 GMT 50.146042 -1.146698 38,000 11 461 0
2019-11-09 12:34:28 GMT 50.139542 -1.148722 38,000 11 461 0
2019-11-09 12:34:25 GMT 50.124481 -1.153420 38,000 11 461 0
2019-11-09 12:34:22 GMT 50.124481 -1.153420 38,000 11 461 0
2019-11-09 12:34:19 GMT 50.120682 -1.154576 38,000 11 461 0
2019-11-09 12:34:15 GMT 50.111946 -1.157276 38,000 11 461 0
2019-11-09 12:34:12 GMT 50.099380 -1.161136 38,000 11 460 0
2019-11-09 12:34:09 GMT 50.099380 -1.161136 38,000 11 460 64
2019-11-09 12:34:06 GMT 50.093327 -1.162992 38,000 11 460 0
2019-11-09 12:34:03 GMT 50.087082 -1.164984 38,000 11 460 0
2019-11-09 12:34:00 GMT 50.079346 -1.167370 38,000 11 460 0
2019-11-09 12:33:57 GMT 50.075592 -1.168526 38,000 11 460 0
2019-11-09 12:33:54 GMT 50.067673 -1.170911 38,000 11 460 0
2019-11-09 12:33:51 GMT 50.062462 -1.172568 38,000 11 460 0
2019-11-09 12:33:48 GMT 50.056183 -1.174453 38,000 11 460 0
2019-11-09 12:33:45 GMT 50.048859 -1.176694 38,000 11 460 0
2019-11-09 12:33:42 GMT 50.043468 -1.178358 38,000 11 460 0
2019-11-09 12:33:39 GMT 50.036999 -1.180362 38,000 11 460 0
2019-11-09 12:33:36 GMT 50.031364 -1.182070 38,000 11 460 0
2019-11-09 12:33:33 GMT 50.026154 -1.183703 38,000 11 460 0
2019-11-09 12:33:30 GMT 50.016953 -1.186523 38,000 11 459 0
2019-11-09 12:33:27 GMT 50.013023 -1.187711 38,000 11 459 0
2019-11-09 12:33:24 GMT 50.005527 -1.190012 38,000 11 459 0
2019-11-09 12:33:20 GMT 49.997383 -1.192536 38,000 11 459 0
2019-11-09 12:33:17 GMT 49.990311 -1.194691 38,000 11 459 0
2019-11-09 12:33:14 GMT 49.984070 -1.196545 38,000 11 459 0
2019-11-09 12:33:11 GMT 49.977833 -1.198475 38,000 10 459 0
2019-11-09 12:33:08 GMT 49.972824 -1.199967 38,000 10 459 0
2019-11-09 12:33:05 GMT 49.958221 -1.204304 38,000 10 459 0
2019-11-09 12:33:02 GMT 49.958221 -1.204304 38,000 10 459 0
2019-11-09 12:32:56 GMT 49.947201 -1.207605 38,000 11 459 0
2019-11-09 12:32:53 GMT 49.939098 -1.210055 38,000 11 459 0
2019-11-09 12:32:50 GMT 49.934921 -1.211315 38,000 10 458 0
2019-11-09 12:32:47 GMT 49.929092 -1.213098 38,000 10 458 0
2019-11-09 12:32:44 GMT 49.924301 -1.214495 38,000 10 458 0
2019-11-09 12:32:41 GMT 49.916847 -1.216736 38,000 10 458 0
2019-11-09 12:32:38 GMT 49.911633 -1.218295 38,000 10 458 0
2019-11-09 12:32:35 GMT 49.904160 -1.220567 38,000 10 458 0
2019-11-09 12:32:32 GMT 49.896881 -1.222735 38,000 10 458 0
2019-11-09 12:32:29 GMT 49.884430 -1.226421 38,000 10 458 0
2019-11-09 12:32:26 GMT 49.884430 -1.226421 38,000 10 457 0
2019-11-09 12:32:23 GMT 49.879002 -1.227945 38,000 10 457 0
2019-11-09 12:32:20 GMT 49.871933 -1.230035 38,000 10 457 0
2019-11-09 12:32:17 GMT 49.866756 -1.231582 38,000 10 457 0
2019-11-09 12:32:14 GMT 49.859493 -1.233661 38,000 10 457 0
2019-11-09 12:32:11 GMT 49.854492 -1.235167 38,000 10 456 0
2019-11-09 12:32:08 GMT 49.847260 -1.237263 38,000 10 457 0
2019-11-09 12:32:04 GMT 49.840221 -1.239377 38,000 10 457 0
2019-11-09 12:32:01 GMT 49.832123 -1.241752 38,000 10 457 0
2019-11-09 12:31:58 GMT 49.825699 -1.243682 38,000 10 456 0
2019-11-09 12:31:54 GMT 49.819275 -1.245612 38,000 10 456 0
2019-11-09 12:31:51 GMT 49.812851 -1.247468 38,000 10 456 0
2019-11-09 12:31:48 GMT 49.807297 -1.249189 38,000 10 456 0
2019-11-09 12:31:45 GMT 49.800652 -1.251105 38,000 10 456 0
2019-11-09 12:31:42 GMT 49.794479 -1.253020 38,000 10 456 0
2019-11-09 12:31:39 GMT 49.789108 -1.254594 38,000 11 455 0
2019-11-09 12:31:36 GMT 49.773792 -1.259197 38,000 11 455 0
2019-11-09 12:31:32 GMT 49.773792 -1.259197 38,000 11 455 -64
2019-11-09 12:31:29 GMT 49.765961 -1.261548 38,000 11 454 0
2019-11-09 12:31:26 GMT 49.755032 -1.264838 38,000 11 454 0
2019-11-09 12:31:23 GMT 49.749893 -1.266391 38,000 11 454 0
2019-11-09 12:31:20 GMT 49.741653 -1.268921 38,000 11 454 0
2019-11-09 12:31:17 GMT 49.741653 -1.268921 38,000 11 454 64
2019-11-09 12:31:13 GMT 49.728058 -1.273041 38,000 11 454 0
2019-11-09 12:31:07 GMT 49.721695 -1.274992 38,000 11 453 0
2019-11-09 12:31:03 GMT 49.713226 -1.277594 38,000 11 453 0
2019-11-09 12:31:00 GMT 49.705627 -1.279980 38,000 11 453 0
2019-11-09 12:30:57 GMT 49.701324 -1.281281 38,000 11 453 0
2019-11-09 12:30:54 GMT 49.694550 -1.283377 38,000 11 453 0
2019-11-09 12:30:50 GMT 49.687134 -1.285690 38,000 11 453 0
2019-11-09 12:30:47 GMT 49.680771 -1.287641 38,000 11 453 0
2019-11-09 12:30:44 GMT 49.675232 -1.289376 38,000 11 453 0
2019-11-09 12:30:41 GMT 49.669098 -1.291265 38,000 11 453 0
2019-11-09 12:30:38 GMT 49.661682 -1.293568 38,000 11 452 0
2019-11-09 12:30:35 GMT 49.654083 -1.295881 38,000 11 452 0
2019-11-09 12:30:32 GMT 49.650604 -1.296965 38,000 11 452 0
2019-11-09 12:30:29 GMT 49.642181 -1.299567 38,000 11 452 0
2019-11-09 12:30:26 GMT 49.637672 -1.300915 38,000 10 452 0
2019-11-09 12:30:23 GMT 49.623505 -1.305205 38,000 9 451 0
2019-11-09 12:30:20 GMT 49.623505 -1.305205 38,000 10 453 0
2019-11-09 12:30:16 GMT 49.615330 -1.307670 38,000 10 452 0
2019-11-09 12:30:13 GMT 49.608719 -1.309541 38,000 10 451 0
2019-11-09 12:30:10 GMT 49.602768 -1.311276 38,000 10 452 0
2019-11-09 12:30:06 GMT 49.594757 -1.313517 38,000 9 451 0
2019-11-09 12:30:03 GMT 49.591496 -1.314425 38,000 9 451 0
2019-11-09 12:30:00 GMT 49.584278 -1.316355 38,000 9 451 0
2019-11-09 12:29:57 GMT 49.578926 -1.317766 38,000 9 451 0
2019-11-09 12:29:54 GMT 49.570496 -1.319950 38,000 9 451 0
2019-11-09 12:29:51 GMT 49.566589 -1.321032 38,000 9 451 0
2019-11-09 12:29:48 GMT 49.559189 -1.322962 38,000 9 451 0
2019-11-09 12:29:45 GMT 49.554253 -1.324298 38,000 9 451 0
2019-11-09 12:29:42 GMT 49.542572 -1.327394 38,000 9 451 -64
2019-11-09 12:29:36 GMT 49.528370 -1.331127 38,000 9 451 0
2019-11-09 12:29:33 GMT 49.528370 -1.331127 38,000 9 450 0
2019-11-09 12:29:30 GMT 49.521790 -1.332887 38,000 10 450 64
2019-11-09 12:29:27 GMT 49.517895 -1.333948 38,000 9 451 64
2019-11-09 12:29:24 GMT 49.510941 -1.335778 38,000 10 450 0
2019-11-09 12:29:21 GMT 49.504768 -1.337437 38,000 10 450 64
2019-11-09 12:29:18 GMT 49.497803 -1.339320 38,000 10 450 64
2019-11-09 12:29:14 GMT 49.489792 -1.341488 38,000 10 450 0
2019-11-09 12:29:09 GMT 49.479538 -1.344307 38,000 10 449 64
2019-11-09 12:29:06 GMT 49.474648 -1.345677 38,000 10 450 64
2019-11-09 12:29:03 GMT 49.467480 -1.347607 38,000 2 444 0
2019-11-09 12:29:00 GMT 49.461319 -1.349295 38,000 10 449 0
2019-11-09 12:28:57 GMT 49.456028 -1.350799 38,000 4 445 0
2019-11-09 12:28:54 GMT 49.448486 -1.352951 38,000 8 448 0
2019-11-09 12:28:51 GMT 49.437012 -1.355511 38,000 3 445 0
2019-11-09 12:28:48 GMT 49.437012 -1.355511 38,000 358 440 0
2019-11-09 12:28:44 GMT 49.422836 -1.357390 38,000 0 443 0
2019-11-09 12:28:41 GMT 49.415249 -1.357896 38,000 0 443 0
2019-11-09 12:28:38 GMT 49.415249 -1.357896 38,000 0 442 0
2019-11-09 12:28:35 GMT 49.409756 -1.357968 38,000 358 441 0
2019-11-09 12:28:32 GMT 49.401810 -1.357657 38,000 357 439 0
2019-11-09 12:28:29 GMT 49.397736 -1.357304 38,000 356 440 -64
2019-11-09 12:28:26 GMT 49.391830 -1.356600 38,000 350 433 0
2019-11-09 12:28:23 GMT 49.386616 -1.355727 38,000 350 435 0
2019-11-09 12:28:20 GMT 49.379215 -1.354065 38,000 351 436 64
2019-11-09 12:28:17 GMT 49.374069 -1.352656 38,000 350 435 0
2019-11-09 12:28:14 GMT 49.361435 -1.348853 38,000 349 435 0
2019-11-09 12:28:11 GMT 49.355713 -1.347163 38,000 349 435 0
2019-11-09 12:28:08 GMT 49.349991 -1.345473 38,000 349 435 0
2019-11-09 12:28:05 GMT 49.349991 -1.345473 38,000 350 434 0
2019-11-09 12:28:02 GMT 49.341740 -1.343006 38,000 350 434 0
2019-11-09 12:27:59 GMT 49.333649 -1.340543 38,000 350 434 0
2019-11-09 12:27:56 GMT 49.333649 -1.340543 38,000 350 434 0
2019-11-09 12:27:53 GMT 49.326370 -1.338431 38,000 350 434 0
2019-11-09 12:27:49 GMT 49.318886 -1.336212 38,000 350 433 -64
2019-11-09 12:27:46 GMT 49.313370 -1.334557 38,000 350 433 0
2019-11-09 12:27:43 GMT 49.307281 -1.332797 38,000 350 433 -64
2019-11-09 12:27:40 GMT 49.294865 -1.329129 38,000 350 433 0
2019-11-09 12:27:37 GMT 49.287601 -1.327033 38,000 350 433 0
2019-11-09 12:27:34 GMT 49.287601 -1.327033 38,000 350 433 0
2019-11-09 12:27:26 GMT 49.274193 -1.323130 38,000 350 433 -64
2019-11-09 12:27:22 GMT 49.265350 -1.320528 38,000 350 433 -64
2019-11-09 12:27:19 GMT 49.261047 -1.319275 38,000 350 433 -64
2019-11-09 12:27:16 GMT 49.252174 -1.316697 38,000 350 433 0
2019-11-09 12:27:12 GMT 49.245331 -1.314673 38,000 350 433 0
2019-11-09 12:27:09 GMT 49.233719 -1.311246 38,000 350 433 0
2019-11-09 12:27:06 GMT 49.233719 -1.311246 38,000 350 433 0
2019-11-09 12:27:03 GMT 49.227829 -1.309541 38,000 350 433 0
2019-11-09 12:26:59 GMT 49.218796 -1.306880 38,000 350 433 0
2019-11-09 12:26:56 GMT 49.214046 -1.305494 38,000 350 433 0
2019-11-09 12:26:52 GMT 49.206207 -1.303218 38,000 350 433 0
2019-11-09 12:26:47 GMT 49.196171 -1.300290 38,000 350 433 0
2019-11-09 12:26:44 GMT 49.189133 -1.298218 38,000 350 433 0
2019-11-09 12:26:41 GMT 49.173386 -1.293570 38,000 350 433 0
2019-11-09 12:26:36 GMT 49.173386 -1.293570 38,000 350 433 0
2019-11-09 12:26:33 GMT 49.164322 -1.290964 38,000 350 433 0
2019-11-09 12:26:26 GMT 49.154114 -1.287936 38,000 350 433 0
2019-11-09 12:26:23 GMT 49.149944 -1.286774 38,000 350 433 -64
2019-11-09 12:26:20 GMT 49.144043 -1.285048 38,000 350 433 0
2019-11-09 12:26:16 GMT 49.134815 -1.282365 38,000 350 433 0
2019-11-09 12:26:13 GMT 49.129303 -1.280752 38,000 350 433 0
2019-11-09 12:26:10 GMT 49.124176 -1.279273 38,000 350 431 0
2019-11-09 12:26:07 GMT 49.119083 -1.277739 38,000 350 431 0
2019-11-09 12:26:04 GMT 49.109631 -1.274992 38,000 350 433 0
2019-11-09 12:26:01 GMT 49.106277 -1.273992 38,000 350 433 0
2019-11-09 12:25:58 GMT 49.099411 -1.272020 38,000 350 432 0
2019-11-09 12:25:55 GMT 49.094879 -1.270682 38,000 350 432 0
2019-11-09 12:25:52 GMT 49.088013 -1.268710 38,000 350 432 0
2019-11-09 12:25:49 GMT 49.080956 -1.266608 38,000 350 431 0
2019-11-09 12:25:45 GMT 49.075058 -1.264907 38,000 350 432 0
2019-11-09 12:25:42 GMT 49.068192 -1.262864 38,000 350 432 0
2019-11-09 12:25:39 GMT 49.061325 -1.260822 38,000 350 431 0
2019-11-09 12:25:36 GMT 49.052307 -1.258216 38,000 350 431 0
2019-11-09 12:25:30 GMT 49.045029 -1.256033 38,000 350 432 0
2019-11-09 12:25:27 GMT 49.039719 -1.254484 38,000 350 432 0
2019-11-09 12:25:24 GMT 49.033844 -1.252803 38,000 350 431 0
2019-11-09 12:25:21 GMT 49.025230 -1.250273 38,000 350 431 0
2019-11-09 12:25:18 GMT 49.019348 -1.248498 38,000 350 431 0
2019-11-09 12:25:15 GMT 49.015823 -1.247512 38,000 350 431 0
2019-11-09 12:25:12 GMT 49.007812 -1.245117 38,000 350 431 0
2019-11-09 12:25:09 GMT 49.004059 -1.244061 38,000 350 431 0
2019-11-09 12:25:05 GMT 48.994904 -1.241385 38,000 350 431 0
2019-11-09 12:25:02 GMT 48.990177 -1.240010 38,000 350 431 0
2019-11-09 12:24:59 GMT 48.984501 -1.238347 38,000 350 431 0
2019-11-09 12:24:56 GMT 48.978653 -1.236666 38,000 350 431 0
2019-11-09 12:24:53 GMT 48.971420 -1.234624 38,000 350 431 0
2019-11-09 12:24:49 GMT 48.963364 -1.232370 38,000 350 431 0
2019-11-09 12:24:46 GMT 48.959656 -1.231314 38,000 350 431 0
2019-11-09 12:24:43 GMT 48.953403 -1.229529 38,000 350 431 0
2019-11-09 12:24:40 GMT 48.947525 -1.227863 38,000 350 431 0
2019-11-09 12:24:37 GMT 48.941437 -1.226102 38,000 350 430 0
2019-11-09 12:24:34 GMT 48.934616 -1.224130 38,000 350 430 -64
2019-11-09 12:24:30 GMT 48.927750 -1.222229 38,000 350 428 0
2019-11-09 12:24:27 GMT 48.922485 -1.220680 38,000 350 429 0
2019-11-09 12:24:24 GMT 48.914886 -1.218496 38,000 350 430 0
2019-11-09 12:24:21 GMT 48.910202 -1.217170 38,000 350 430 64
2019-11-09 12:24:18 GMT 48.903168 -1.215116 38,000 350 429 64
2019-11-09 12:24:12 GMT 48.892639 -1.212088 38,000 350 429 0
2019-11-09 12:24:09 GMT 48.886787 -1.210375 38,000 350 429 0
2019-11-09 12:24:06 GMT 48.881744 -1.208919 38,000 350 429 0
2019-11-09 12:24:02 GMT 48.872543 -1.206242 38,000 350 429 -64
2019-11-09 12:23:59 GMT 48.867886 -1.204954 38,000 350 429 -64
2019-11-09 12:23:56 GMT 48.861282 -1.203003 38,000 350 428 -64
2019-11-09 12:23:52 GMT 48.853683 -1.200820 38,000 350 428 -64
2019-11-09 12:23:49 GMT 48.848831 -1.199411 38,000 350 428 0
2019-11-09 12:23:46 GMT 48.840454 -1.197017 38,000 350 428 0
2019-11-09 12:23:43 GMT 48.830551 -1.194113 38,000 350 428 0
2019-11-09 12:23:40 GMT 48.824917 -1.192523 38,000 350 427 0
2019-11-09 12:23:37 GMT 48.824917 -1.192523 38,000 350 427 64
2019-11-09 12:23:34 GMT 48.816742 -1.190186 38,000 350 427 64
2019-11-09 12:23:31 GMT 48.811695 -1.188764 38,000 350 427 64
2019-11-09 12:23:28 GMT 48.808392 -1.187824 38,000 350 427 64
2019-11-09 12:23:25 GMT 48.801407 -1.185749 38,000 350 427 64
2019-11-09 12:23:22 GMT 48.787857 -1.181875 38,000 350 427 0
2019-11-09 12:23:18 GMT 48.787857 -1.181875 38,000 350 427 0
2019-11-09 12:23:15 GMT 48.782227 -1.180256 38,000 350 426 0
2019-11-09 12:23:12 GMT 48.776409 -1.178573 38,000 350 426 0
2019-11-09 12:23:09 GMT 48.763283 -1.174742 38,000 350 426 0
2019-11-09 12:23:06 GMT 48.763283 -1.174742 38,000 350 425 0
2019-11-09 12:23:02 GMT 48.757828 -1.173213 38,000 350 426 0
2019-11-09 12:22:59 GMT 48.749908 -1.170889 38,000 350 422 0
2019-11-09 12:22:55 GMT 48.743134 -1.168917 38,000 350 426 0
2019-11-09 12:22:52 GMT 48.738518 -1.167586 38,000 350 425 0
2019-11-09 12:22:49 GMT 48.731766 -1.165635 38,000 350 425 0
2019-11-09 12:22:45 GMT 48.723267 -1.163213 38,000 350 425 0
2019-11-09 12:22:42 GMT 48.719604 -1.162156 38,000 350 425 0
2019-11-09 12:22:39 GMT 48.712463 -1.160114 38,000 350 424 0
2019-11-09 12:22:35 GMT 48.703400 -1.157579 38,000 350 424 0
2019-11-09 12:22:31 GMT 48.694710 -1.155082 38,000 350 424 0
2019-11-09 12:22:28 GMT 48.690895 -1.153998 38,000 350 424 0
2019-11-09 12:22:25 GMT 48.686646 -1.152790 38,000 350 424 0
2019-11-09 12:22:22 GMT 48.679916 -1.150888 38,000 350 424 0
2019-11-09 12:22:18 GMT 48.671814 -1.148564 38,000 350 424 0
2019-11-09 12:22:13 GMT 48.662384 -1.145888 38,000 350 424 0
2019-11-09 12:22:10 GMT 48.657375 -1.144457 38,000 350 424 0
2019-11-09 12:22:07 GMT 48.652359 -1.143001 38,000 350 424 0
2019-11-09 12:22:04 GMT 48.644073 -1.140677 38,000 350 423 -64
2019-11-09 12:22:00 GMT 48.635822 -1.138314 38,000 350 423 0
2019-11-09 12:21:57 GMT 48.632378 -1.137302 38,000 350 422 0
2019-11-09 12:21:53 GMT 48.624664 -1.135113 38,000 350 423 -64
2019-11-09 12:21:49 GMT 48.614502 -1.132170 38,000 350 423 0
2019-11-09 12:21:45 GMT 48.609100 -1.130606 38,000 350 423 0
2019-11-09 12:21:42 GMT 48.602959 -1.128845 38,000 350 423 0
2019-11-09 12:21:39 GMT 48.596996 -1.127111 38,000 350 423 0
2019-11-09 12:21:36 GMT 48.590294 -1.125159 38,000 350 422 0
2019-11-09 12:21:31 GMT 48.575134 -1.120817 38,000 350 422 0
2019-11-09 12:21:27 GMT 48.575134 -1.120817 38,000 350 422 0
2019-11-09 12:21:24 GMT 48.568230 -1.118799 38,000 350 422 0
2019-11-09 12:21:21 GMT 48.563644 -1.117507 38,000 350 422 0
2019-11-09 12:21:18 GMT 48.549282 -1.113378 38,000 350 422 0
2019-11-09 12:21:14 GMT 48.549282 -1.113378 38,000 350 422 0
2019-11-09 12:21:11 GMT 48.543503 -1.111732 38,000 350 422 0
2019-11-09 12:21:08 GMT 48.535446 -1.109408 38,000 350 422 0
2019-11-09 12:21:03 GMT 48.526245 -1.106732 38,000 350 422 0
2019-11-09 12:21:00 GMT 48.522236 -1.105572 38,000 350 422 0
2019-11-09 12:20:57 GMT 48.515350 -1.103633 38,000 350 422 0
2019-11-09 12:20:54 GMT 48.510544 -1.102224 38,000 350 422 0
2019-11-09 12:20:51 GMT 48.505196 -1.100657 38,000 350 422 64
2019-11-09 12:20:48 GMT 48.498493 -1.098777 38,000 350 422 64
2019-11-09 12:20:45 GMT 48.491959 -1.096872 38,000 350 422 0
2019-11-09 12:20:41 GMT 48.478912 -1.093210 38,000 350 422 0
2019-11-09 12:20:37 GMT 48.478912 -1.093210 38,000 350 422 0
2019-11-09 12:20:34 GMT 48.472961 -1.091520 38,000 350 422 0
2019-11-09 12:20:31 GMT 48.465500 -1.089407 38,000 350 422 -64
2019-11-09 12:20:27 GMT 48.459763 -1.087719 38,000 350 422 -64
2019-11-09 12:20:23 GMT 48.450546 -1.085189 38,000 350 422 0
2019-11-09 12:20:19 GMT 48.444031 -1.083351 38,000 350 421 64
2019-11-09 12:20:16 GMT 48.437714 -1.081590 38,000 350 421 0
2019-11-09 12:20:12 GMT 48.424667 -1.077998 38,000 350 422 64
2019-11-09 12:20:09 GMT 48.424667 -1.077998 38,000 350 422 -64
2019-11-09 12:20:06 GMT 48.419308 -1.076516 38,000 350 422 0
2019-11-09 12:20:02 GMT 48.405155 -1.072540 38,000 350 422 64
2019-11-09 12:19:59 GMT 48.405155 -1.072540 38,000 350 422 64
2019-11-09 12:19:56 GMT 48.400177 -1.071167 38,000 350 421 -64
2019-11-09 12:19:53 GMT 48.394592 -1.069547 38,000 350 421 0
2019-11-09 12:19:50 GMT 48.388493 -1.067842 38,000 350 421 0
2019-11-09 12:19:47 GMT 48.382004 -1.066026 38,000 350 421 -64
2019-11-09 12:19:44 GMT 48.375275 -1.064054 38,000 350 421 -64
2019-11-09 12:19:40 GMT 48.369370 -1.062364 38,000 350 421 0
2019-11-09 12:19:36 GMT 48.359814 -1.059675 38,000 350 421 0
2019-11-09 12:19:33 GMT 48.355591 -1.058490 38,000 350 421 0
2019-11-09 12:19:30 GMT 48.349686 -1.056800 38,000 350 421 0
2019-11-09 12:19:26 GMT 48.336319 -1.052997 38,000 350 421 0
2019-11-09 12:19:23 GMT 48.336319 -1.052997 38,000 350 421 0
2019-11-09 12:19:20 GMT 48.330780 -1.051448 38,000 350 421 0
2019-11-09 12:19:17 GMT 48.324669 -1.049773 38,000 350 421 0
2019-11-09 12:19:13 GMT 48.315262 -1.047152 38,000 350 421 0
2019-11-09 12:19:09 GMT 48.308578 -1.045251 38,000 350 421 0
2019-11-09 12:19:05 GMT 48.301716 -1.043268 38,000 350 421 0
2019-11-09 12:19:02 GMT 48.295757 -1.041605 38,000 350 421 0
2019-11-09 12:18:59 GMT 48.285233 -1.038631 38,000 350 421 0
2019-11-09 12:18:56 GMT 48.285233 -1.038631 38,000 350 421 0
2019-11-09 12:18:51 GMT 48.275116 -1.035743 38,000 350 421 0
2019-11-09 12:18:48 GMT 48.269394 -1.034123 38,000 350 421 0
2019-11-09 12:18:45 GMT 48.264614 -1.032787 38,000 350 421 0
2019-11-09 12:18:41 GMT 48.248154 -1.028208 38,000 350 421 0
2019-11-09 12:18:37 GMT 48.248154 -1.028208 38,000 350 421 0
2019-11-09 12:18:33 GMT 48.241619 -1.026354 38,000 350 421 0
2019-11-09 12:18:30 GMT 48.229191 -1.022885 38,000 350 422 0
2019-11-09 12:18:27 GMT 48.229191 -1.022885 38,000 350 421 0
2019-11-09 12:18:24 GMT 48.224628 -1.021584 38,000 350 422 0
2019-11-09 12:18:19 GMT 48.214874 -1.018841 38,000 350 422 0
2019-11-09 12:18:16 GMT 48.206799 -1.016597 38,000 350 421 0
2019-11-09 12:18:12 GMT 48.199162 -1.014501 38,000 350 422 0
2019-11-09 12:18:08 GMT 48.192833 -1.012766 38,000 350 422 0
2019-11-09 12:18:05 GMT 48.180038 -1.009193 38,000 350 422 0
2019-11-09 12:17:58 GMT 48.173512 -1.007345 38,000 350 422 0
2019-11-09 12:17:53 GMT 48.164902 -1.004960 38,000 350 422 0
2019-11-09 12:17:50 GMT 48.158943 -1.003277 38,000 350 422 64
2019-11-09 12:17:47 GMT 48.146301 -0.999756 38,000 350 422 0
2019-11-09 12:17:43 GMT 48.146301 -0.999756 38,000 350 422 0
2019-11-09 12:17:40 GMT 48.139206 -0.997765 38,000 350 422 0
2019-11-09 12:17:37 GMT 48.133667 -0.996185 38,000 350 422 0
2019-11-09 12:17:33 GMT 48.126728 -0.994263 38,000 350 422 0
2019-11-09 12:17:28 GMT 48.109085 -0.989319 38,000 350 422 0
2019-11-09 12:17:19 GMT 48.100471 -0.986798 38,000 350 422 0
2019-11-09 12:17:16 GMT 48.093933 -0.984993 38,000 350 422 -64
2019-11-09 12:17:13 GMT 48.087616 -0.983208 38,000 350 422 0
2019-11-09 12:17:10 GMT 48.079571 -0.980882 38,000 350 422 -64
2019-11-09 12:17:07 GMT 48.076492 -0.979980 38,000 350 422 -64
2019-11-09 12:17:02 GMT 48.066742 -0.977234 38,000 350 422 64
2019-11-09 12:16:59 GMT 48.060997 -0.975600 38,000 350 422 128
2019-11-09 12:16:53 GMT 48.048706 -0.972079 38,000 350 422 64
2019-11-09 12:16:49 GMT 48.041245 -0.969955 38,000 350 423 0
2019-11-09 12:16:46 GMT 48.033951 -0.967924 38,000 350 423 0
2019-11-09 12:16:43 GMT 48.027786 -0.966179 38,000 350 423 0
2019-11-09 12:16:40 GMT 48.023010 -0.964825 38,000 350 423 0
2019-11-09 12:16:37 GMT 48.013962 -0.962334 38,000 350 423 -64
2019-11-09 12:16:31 GMT 47.999176 -0.958214 38,000 350 423 0
2019-11-09 12:16:27 GMT 47.999176 -0.958214 38,000 350 424 0
2019-11-09 12:16:24 GMT 47.994553 -0.956978 38,000 350 424 64
2019-11-09 12:16:20 GMT 47.980316 -0.952995 38,000 350 424 0
2019-11-09 12:16:14 GMT 47.967407 -0.949425 38,000 350 424 64
2019-11-09 12:16:10 GMT 47.967407 -0.949425 38,000 350 424 -64
2019-11-09 12:16:07 GMT 47.962025 -0.947923 38,000 350 424 -64
2019-11-09 12:16:04 GMT 47.955696 -0.946233 38,000 350 424 0
2019-11-09 12:16:01 GMT 47.950653 -0.944824 38,000 350 424 64
2019-11-09 12:15:56 GMT 47.939484 -0.941803 38,000 350 424 0
2019-11-09 12:15:52 GMT 47.931767 -0.939683 38,000 350 424 0
2019-11-09 12:15:49 GMT 47.925247 -0.937889 38,000 350 424 -64
2019-11-09 12:15:46 GMT 47.919849 -0.936373 38,000 350 424 -64
2019-11-09 12:15:41 GMT 47.911564 -0.934049 38,000 350 424 -64
2019-11-09 12:15:37 GMT 47.901928 -0.931373 38,000 350 424 0
2019-11-09 12:15:31 GMT 47.884781 -0.926628 38,000 350 424 64
2019-11-09 12:15:27 GMT 47.884781 -0.926628 38,000 350 424 0
2019-11-09 12:15:24 GMT 47.878418 -0.924843 38,000 350 424 0
2019-11-09 12:15:21 GMT 47.870132 -0.922570 38,000 350 424 0
2019-11-09 12:15:16 GMT 47.861099 -0.920035 38,000 350 424 0
2019-11-09 12:15:11 GMT 47.853558 -0.917992 38,000 350 424 0
2019-11-09 12:15:07 GMT 47.844910 -0.915642 38,000 350 424 0
2019-11-09 12:15:04 GMT 47.840294 -0.914330 38,000 350 424 0
2019-11-09 12:15:01 GMT 47.833961 -0.912569 38,000 350 424 0
2019-11-09 12:14:57 GMT 47.826839 -0.910668 38,000 350 424 0
2019-11-09 12:14:54 GMT 47.817993 -0.908203 38,000 350 423 0
2019-11-09 12:14:49 GMT 47.811035 -0.906303 38,000 350 423 0
2019-11-09 12:14:46 GMT 47.804306 -0.904449 38,000 350 423 0
2019-11-09 12:14:43 GMT 47.797791 -0.902640 38,000 350 423 0
2019-11-09 12:14:40 GMT 47.793182 -0.901360 38,000 350 423 0
2019-11-09 12:14:36 GMT 47.783386 -0.898682 38,000 350 423 0
2019-11-09 12:14:33 GMT 47.779358 -0.897514 38,000 350 423 0
2019-11-09 12:14:29 GMT 47.771851 -0.895454 38,000 350 423 0
2019-11-09 12:14:26 GMT 47.766087 -0.893907 38,000 350 423 0
2019-11-09 12:14:22 GMT 47.757248 -0.891472 38,000 350 423 0
2019-11-09 12:14:19 GMT 47.752441 -0.890167 38,000 350 423 0
2019-11-09 12:14:15 GMT 47.745140 -0.888132 38,000 350 423 0
2019-11-09 12:14:11 GMT 47.737839 -0.886116 38,000 350 423 0
2019-11-09 12:14:08 GMT 47.732254 -0.884605 38,000 350 423 0
2019-11-09 12:14:05 GMT 47.726891 -0.883132 38,000 350 423 0
2019-11-09 12:14:00 GMT 47.717857 -0.880596 38,000 350 423 0
2019-11-09 12:13:57 GMT 47.709015 -0.878132 38,000 350 422 0
2019-11-09 12:13:48 GMT 47.693699 -0.873906 38,000 350 421 0
2019-11-09 12:13:44 GMT 47.674942 -0.868675 38,000 350 420 0
2019-11-09 12:13:39 GMT 47.674942 -0.868675 38,000 350 421 0
2019-11-09 12:13:35 GMT 47.670181 -0.867371 38,000 350 421 0
2019-11-09 12:13:30 GMT 47.658691 -0.864187 38,000 350 421 0
2019-11-09 12:13:26 GMT 47.651047 -0.862083 38,000 350 420 0
2019-11-09 12:13:18 GMT 47.635601 -0.857849 38,000 350 420 0
2019-11-09 12:13:15 GMT 47.631409 -0.856659 38,000 350 420 0
2019-11-09 12:13:12 GMT 47.623947 -0.854599 38,000 350 420 0
2019-11-09 12:13:08 GMT 47.616714 -0.852608 38,000 350 419 0
2019-11-09 12:13:05 GMT 47.612137 -0.851372 38,000 350 419 0
2019-11-09 12:12:57 GMT 47.597122 -0.847252 38,000 350 418 0
2019-11-09 12:12:54 GMT 47.590633 -0.845454 38,000 350 419 0
2019-11-09 12:12:46 GMT 47.570847 -0.840042 38,000 350 418 0
2019-11-09 12:12:38 GMT 47.560959 -0.837364 38,000 350 418 0
2019-11-09 12:12:35 GMT 47.554321 -0.835579 38,000 350 418 0
2019-11-09 12:12:32 GMT 47.549561 -0.834274 38,000 350 417 0
2019-11-09 12:12:28 GMT 47.541195 -0.831933 38,000 350 417 0
2019-11-09 12:12:25 GMT 47.534908 -0.830242 38,000 350 417 0
2019-11-09 12:12:22 GMT 47.530163 -0.828975 38,000 350 417 0
2019-11-09 12:12:16 GMT 47.518383 -0.825735 38,000 350 417 0
2019-11-09 12:12:13 GMT 47.513634 -0.824468 38,000 350 417 0
2019-11-09 12:12:07 GMT 47.495087 -0.819374 38,000 350 417 0
2019-11-09 12:12:01 GMT 47.491287 -0.818344 38,000 350 417 0
2019-11-09 12:11:55 GMT 47.478012 -0.814636 38,000 350 416 0
2019-11-09 12:11:52 GMT 47.472343 -0.813129 38,000 350 416 0
2019-11-09 12:11:47 GMT 47.462677 -0.810448 38,000 350 416 0
2019-11-09 12:11:44 GMT 47.456982 -0.808904 38,000 350 416 0
2019-11-09 12:11:40 GMT 47.450745 -0.807213 38,000 350 416 0
2019-11-09 12:11:36 GMT 47.436584 -0.803307 38,000 350 416 0
2019-11-09 12:11:30 GMT 47.425045 -0.800171 38,000 350 416 0
2019-11-09 12:11:27 GMT 47.425045 -0.800171 38,000 350 416 0
2019-11-09 12:11:24 GMT 47.419785 -0.798706 38,000 350 416 0
2019-11-09 12:11:19 GMT 47.411453 -0.796438 38,000 350 416 0
2019-11-09 12:11:16 GMT 47.399597 -0.793213 38,000 350 415 64
2019-11-09 12:11:08 GMT 47.389572 -0.790523 38,000 350 415 -64
2019-11-09 12:11:03 GMT 47.381474 -0.788339 38,000 350 415 0
2019-11-09 12:10:59 GMT 47.362572 -0.783198 38,000 350 416 0
2019-11-09 12:10:54 GMT 47.362572 -0.783198 38,000 350 416 0
2019-11-09 12:10:47 GMT 47.347118 -0.778973 38,000 350 416 0
2019-11-09 12:10:44 GMT 47.339714 -0.776931 38,000 350 415 0
2019-11-09 12:10:35 GMT 47.326122 -0.773268 38,000 350 415 0
2019-11-09 12:10:31 GMT 47.317657 -0.770966 38,000 350 414 0
2019-11-09 12:10:26 GMT 47.308411 -0.768494 38,000 350 414 0
2019-11-09 12:10:23 GMT 47.304428 -0.767395 38,000 350 414 0
2019-11-09 12:10:20 GMT 47.298798 -0.765874 38,000 350 414 0
2019-11-09 12:10:16 GMT 47.291813 -0.763972 38,000 350 414 64
2019-11-09 12:10:13 GMT 47.285797 -0.762314 38,000 350 415 64
2019-11-09 12:10:10 GMT 47.278641 -0.760381 38,000 350 415 0
2019-11-09 12:10:07 GMT 47.275223 -0.759430 38,000 350 415 0
2019-11-09 12:10:04 GMT 47.268444 -0.757634 38,000 350 415 0
2019-11-09 12:10:01 GMT 47.264282 -0.756477 38,000 350 415 -64
2019-11-09 12:09:56 GMT 47.253548 -0.753549 38,000 350 415 -64
2019-11-09 12:09:52 GMT 47.245972 -0.751465 38,000 350 415 0
2019-11-09 12:09:49 GMT 47.241070 -0.750169 38,000 350 415 0
2019-11-09 12:09:42 GMT 47.226929 -0.746315 38,000 350 415 0
2019-11-09 12:09:39 GMT 47.220543 -0.744535 38,000 350 414 0
2019-11-09 12:09:33 GMT 47.209972 -0.741648 38,000 350 414 0
2019-11-09 12:09:30 GMT 47.205830 -0.740591 38,000 350 414 0
2019-11-09 12:09:25 GMT 47.195263 -0.737704 38,000 350 414 0
2019-11-09 12:09:22 GMT 47.189621 -0.736221 38,000 350 414 0
2019-11-09 12:09:19 GMT 47.182297 -0.734230 38,000 350 414 0
2019-11-09 12:09:12 GMT 47.170406 -0.731013 38,000 350 414 0
2019-11-09 12:09:09 GMT 47.166447 -0.729957 38,000 350 415 -64
2019-11-09 12:09:06 GMT 47.159092 -0.727985 38,000 350 415 -64
2019-11-09 12:09:02 GMT 47.151581 -0.725922 38,000 350 414 0
2019-11-09 12:08:59 GMT 47.146664 -0.724605 38,000 350 414 64
2019-11-09 12:08:55 GMT 47.138378 -0.722351 38,000 350 414 64
2019-11-09 12:08:52 GMT 47.132511 -0.720802 38,000 350 414 0
2019-11-09 12:08:46 GMT 47.121964 -0.718025 38,000 350 414 0
2019-11-09 12:08:42 GMT 47.108025 -0.714323 38,000 350 414 0
2019-11-09 12:08:39 GMT 47.100670 -0.712351 38,000 350 414 0
2019-11-09 12:08:35 GMT 47.100670 -0.712351 38,000 350 414 0
2019-11-09 12:08:31 GMT 47.092896 -0.710308 38,000 350 414 0
2019-11-09 12:08:28 GMT 47.088940 -0.709252 38,000 350 414 0
2019-11-09 12:08:24 GMT 47.080093 -0.706858 38,000 350 415 0
2019-11-09 12:08:21 GMT 47.074448 -0.705322 38,000 350 415 0
2019-11-09 12:08:18 GMT 47.068783 -0.703829 38,000 350 415 0
2019-11-09 12:08:14 GMT 47.061584 -0.701889 38,000 350 415 0
2019-11-09 12:08:10 GMT 47.053299 -0.699692 38,000 350 415 0
2019-11-09 12:08:05 GMT 47.042713 -0.696857 38,000 350 416 0
2019-11-09 12:08:01 GMT 47.036453 -0.695229 38,000 350 416 0
2019-11-09 12:07:58 GMT 47.029633 -0.693443 38,000 350 416 0
2019-11-09 12:07:55 GMT 47.025116 -0.692209 38,000 350 416 0
2019-11-09 12:07:50 GMT 47.015808 -0.689735 38,000 350 416 0
2019-11-09 12:07:47 GMT 47.010544 -0.688336 38,000 350 416 0
2019-11-09 12:07:43 GMT 47.003143 -0.686364 38,000 350 416 0
2019-11-09 12:07:40 GMT 46.996719 -0.684586 38,000 350 416 0
2019-11-09 12:07:36 GMT 46.990082 -0.682800 38,000 350 416 0
2019-11-09 12:07:32 GMT 46.982101 -0.680659 38,000 350 416 0
2019-11-09 12:07:29 GMT 46.976608 -0.679180 38,000 350 417 0
2019-11-09 12:07:26 GMT 46.958771 -0.674355 38,000 350 417 0
2019-11-09 12:07:20 GMT 46.958771 -0.674355 38,000 350 417 0
2019-11-09 12:07:14 GMT 46.948353 -0.671575 38,000 350 417 0
2019-11-09 12:07:09 GMT 46.939411 -0.669180 38,000 350 417 0
2019-11-09 12:07:05 GMT 46.930710 -0.666786 38,000 350 417 0
2019-11-09 12:07:02 GMT 46.922932 -0.664743 38,000 350 417 0
2019-11-09 12:06:59 GMT 46.920280 -0.664039 38,000 350 417 0
2019-11-09 12:06:55 GMT 46.911530 -0.661645 38,000 350 417 64
2019-11-09 12:06:50 GMT 46.896168 -0.657560 38,000 350 417 0
2019-11-09 12:06:44 GMT 46.892166 -0.656502 38,000 350 417 0
2019-11-09 12:06:39 GMT 46.881134 -0.653549 38,000 350 417 64
2019-11-09 12:06:34 GMT 46.872238 -0.651222 38,000 350 417 0
2019-11-09 12:06:31 GMT 46.861588 -0.648394 38,000 350 417 -64
2019-11-09 12:06:28 GMT 46.852478 -0.645983 38,000 350 417 0
2019-11-09 12:06:24 GMT 46.852478 -0.645983 38,000 350 417 0
2019-11-09 12:06:18 GMT 46.841839 -0.643112 38,000 350 417 0
2019-11-09 12:06:14 GMT 46.832714 -0.640640 38,000 350 418 0
2019-11-09 12:06:11 GMT 46.826294 -0.638882 38,000 350 418 0
2019-11-09 12:06:08 GMT 46.822659 -0.637894 38,000 350 417 0
2019-11-09 12:06:05 GMT 46.816608 -0.636246 38,000 350 417 0
2019-11-09 12:05:57 GMT 46.802353 -0.632451 38,000 350 417 0
2019-11-09 12:05:52 GMT 46.790955 -0.629369 38,000 350 418 0
2019-11-09 12:05:47 GMT 46.783905 -0.627494 38,000 350 418 0
2019-11-09 12:05:41 GMT 46.771919 -0.624298 38,000 350 418 0
2019-11-09 12:05:37 GMT 46.763351 -0.622000 38,000 350 418 0
2019-11-09 12:05:31 GMT 46.749851 -0.618462 38,000 350 418 0
2019-11-09 12:05:27 GMT 46.744354 -0.617043 38,000 350 418 0
2019-11-09 12:05:21 GMT 46.732910 -0.614096 38,000 350 418 0
2019-11-09 12:05:18 GMT 46.727371 -0.612622 38,000 350 418 64
2019-11-09 12:05:09 GMT 46.710236 -0.608162 38,000 350 418 0
2019-11-09 12:05:06 GMT 46.704575 -0.606660 38,000 350 418 0
2019-11-09 12:05:00 GMT 46.693130 -0.603645 38,000 350 418 0
2019-11-09 12:04:56 GMT 46.685890 -0.601707 38,000 350 418 0
2019-11-09 12:04:51 GMT 46.676376 -0.599157 38,000 350 418 0
2019-11-09 12:04:48 GMT 46.669922 -0.597482 38,000 350 418 0
2019-11-09 12:04:45 GMT 46.665916 -0.596420 38,000 350 418 0
2019-11-09 12:04:38 GMT 46.650696 -0.592369 38,000 350 418 0
2019-11-09 12:04:28 GMT 46.627350 -0.586161 38,000 350 417 0
2019-11-09 12:04:18 GMT 46.611557 -0.581940 38,000 350 417 0
2019-11-09 12:04:15 GMT 46.607574 -0.580869 38,000 350 417 0
2019-11-09 12:04:07 GMT 46.588028 -0.575643 38,000 350 417 0
2019-11-09 12:03:57 GMT 46.573608 -0.571825 38,000 350 417 64
2019-11-09 12:03:54 GMT 46.567924 -0.570328 38,000 350 417 64
2019-11-09 12:03:48 GMT 46.555962 -0.567169 38,000 350 416 0
2019-11-09 12:03:45 GMT 46.550468 -0.565727 38,000 350 416 0
2019-11-09 12:03:42 GMT 46.545731 -0.564523 38,000 350 416 0
2019-11-09 12:03:36 GMT 46.534550 -0.561607 38,000 350 416 0
2019-11-09 12:03:33 GMT 46.528473 -0.559968 38,000 350 416 0
2019-11-09 12:03:26 GMT 46.514671 -0.556320 38,000 350 416 -64
2019-11-09 12:03:23 GMT 46.509548 -0.555016 38,000 350 416 -64
2019-11-09 12:03:16 GMT 46.496475 -0.551661 38,000 350 415 0
2019-11-09 12:03:13 GMT 46.490231 -0.550003 38,000 350 415 0
2019-11-09 12:03:07 GMT 46.479103 -0.547050 38,000 350 415 64
2019-11-09 12:03:04 GMT 46.472866 -0.545471 38,000 350 415 0
2019-11-09 12:03:01 GMT 46.468536 -0.544304 38,000 350 415 0
2019-11-09 12:02:57 GMT 46.460220 -0.542082 38,000 350 415 0
2019-11-09 12:02:54 GMT 46.448708 -0.539085 38,000 350 415 0
2019-11-09 12:02:46 GMT 46.439255 -0.536588 38,000 350 415 0
2019-11-09 12:02:43 GMT 46.433578 -0.535115 38,000 350 415 0
2019-11-09 12:02:40 GMT 46.427151 -0.533455 38,000 350 415 0
2019-11-09 12:02:36 GMT 46.421333 -0.531944 38,000 350 414 0
2019-11-09 12:02:33 GMT 46.414909 -0.530228 38,000 350 414 0
2019-11-09 12:02:30 GMT 46.408485 -0.528580 38,000 350 414 64
2019-11-09 12:02:25 GMT 46.400757 -0.526520 38,000 350 414 64
2019-11-09 12:02:20 GMT 46.390778 -0.523927 38,000 350 414 0
2019-11-09 12:02:15 GMT 46.379295 -0.520958 38,000 350 414 0
2019-11-09 12:02:10 GMT 46.372147 -0.519037 38,000 350 414 0
2019-11-09 12:02:07 GMT 46.365330 -0.517319 38,000 350 413 0
2019-11-09 12:02:04 GMT 46.359329 -0.515688 38,000 350 413 0
2019-11-09 12:02:01 GMT 46.354614 -0.514482 38,000 350 413 0
2019-11-09 12:01:58 GMT 46.349922 -0.513268 38,000 350 413 0
2019-11-09 12:01:55 GMT 46.344105 -0.511757 38,000 350 413 0
2019-11-09 12:01:52 GMT 46.337677 -0.510060 38,000 350 413 0
2019-11-09 12:01:49 GMT 46.332047 -0.508598 38,000 350 413 0
2019-11-09 12:01:45 GMT 46.323807 -0.506401 38,000 350 413 0
2019-11-09 12:01:40 GMT 46.316254 -0.504433 38,000 350 413 0
2019-11-09 12:01:37 GMT 46.308537 -0.502419 38,000 350 413 -64
2019-11-09 12:01:34 GMT 46.304626 -0.501419 38,000 350 413 -64
2019-11-09 12:01:31 GMT 46.298767 -0.499878 38,000 350 413 0
2019-11-09 12:01:28 GMT 46.292381 -0.498161 38,000 350 413 -64
2019-11-09 12:01:24 GMT 46.276611 -0.494050 38,000 350 412 0
2019-11-09 12:01:20 GMT 46.276611 -0.494050 38,000 350 412 0
2019-11-09 12:01:15 GMT 46.268188 -0.491839 38,000 350 412 0
2019-11-09 12:01:09 GMT 46.257889 -0.489166 38,000 350 412 0
2019-11-09 12:01:06 GMT 46.249237 -0.486882 38,000 350 412 0
2019-11-09 12:01:02 GMT 46.243645 -0.485458 38,000 350 411 0
2019-11-09 12:00:59 GMT 46.233170 -0.482712 38,000 350 411 0
2019-11-09 12:00:53 GMT 46.218933 -0.478977 38,000 350 411 0
2019-11-09 12:00:49 GMT 46.218933 -0.478977 38,000 350 411 -64
2019-11-09 12:00:45 GMT 46.211609 -0.477101 38,000 350 411 -64
2019-11-09 12:00:42 GMT 46.207306 -0.475963 38,000 350 411 0
2019-11-09 12:00:39 GMT 46.198883 -0.473752 38,000 350 411 0
2019-11-09 12:00:34 GMT 46.190109 -0.471451 38,000 350 411 0
2019-11-09 12:00:28 GMT 46.179821 -0.468842 38,000 350 411 0
2019-11-09 12:00:24 GMT 46.173069 -0.467056 38,000 350 411 0
2019-11-09 12:00:21 GMT 46.167664 -0.465646 38,000 350 411 0
2019-11-09 12:00:18 GMT 46.160934 -0.463904 38,000 350 411 0
2019-11-09 12:00:13 GMT 46.151367 -0.461426 38,000 350 411 0
2019-11-09 12:00:10 GMT 46.145966 -0.460019 38,000 350 411 0
2019-11-09 12:00:07 GMT 46.141834 -0.458954 38,000 350 411 0
2019-11-09 12:00:02 GMT 46.132664 -0.456619 38,000 350 411 0
2019-11-09 11:59:57 GMT 46.122757 -0.454057 38,000 350 410 0
2019-11-09 11:59:51 GMT 46.111343 -0.451126 38,000 350 410 0
2019-11-09 11:59:47 GMT 46.102776 -0.448929 38,000 350 409 0
2019-11-09 11:59:43 GMT 46.095886 -0.447224 38,000 351 409 0
2019-11-09 11:59:39 GMT 46.088425 -0.445281 38,000 351 409 64
2019-11-09 11:59:36 GMT 46.080826 -0.443339 38,000 351 409 0
2019-11-09 11:59:32 GMT 46.074646 -0.441798 38,000 350 408 0
2019-11-09 11:59:28 GMT 46.067581 -0.440002 38,000 350 408 0
2019-11-09 11:59:25 GMT 46.060181 -0.438113 38,000 350 408 -64
2019-11-09 11:59:22 GMT 46.056656 -0.437242 38,000 350 408 -64
2019-11-09 11:59:19 GMT 46.050888 -0.435769 38,000 350 408 -64
2019-11-09 11:59:14 GMT 46.042725 -0.433685 38,000 350 407 0
2019-11-09 11:59:11 GMT 46.036789 -0.432218 38,000 350 407 0
2019-11-09 11:59:08 GMT 46.031971 -0.431007 38,000 350 407 0
2019-11-09 11:59:05 GMT 46.026615 -0.429634 38,000 350 406 64
2019-11-09 11:59:02 GMT 46.017166 -0.427231 38,000 350 406 0
2019-11-09 11:58:59 GMT 46.013302 -0.426201 38,000 350 406 0
2019-11-09 11:58:56 GMT 46.000919 -0.423042 38,000 350 405 0
2019-11-09 11:58:52 GMT 46.000919 -0.423042 38,000 345 400 -64
2019-11-09 11:58:48 GMT 45.988220 -0.419758 38,000 350 405 0
2019-11-09 11:58:45 GMT 45.981033 -0.417949 38,000 350 404 0
2019-11-09 11:58:42 GMT 45.981033 -0.417949 38,000 350 404 0
2019-11-09 11:58:38 GMT 45.975128 -0.416382 38,000 350 404 0
2019-11-09 11:58:35 GMT 45.962841 -0.413223 38,000 350 404 0
2019-11-09 11:58:31 GMT 45.962841 -0.413223 38,000 350 403 0
2019-11-09 11:58:27 GMT 45.953671 -0.410889 38,000 350 404 0
2019-11-09 11:58:24 GMT 45.942810 -0.408102 38,000 349 402 0
2019-11-09 11:58:17 GMT 45.937500 -0.406695 38,000 350 404 0
2019-11-09 11:58:14 GMT 45.924480 -0.403130 38,000 349 402 0
2019-11-09 11:58:11 GMT 45.924480 -0.403130 38,000 347 402 0
2019-11-09 11:58:08 GMT 45.919220 -0.401482 38,000 346 401 0
2019-11-09 11:58:04 GMT 45.910980 -0.398460 38,000 344 399 0
2019-11-09 11:57:59 GMT 45.904602 -0.395782 38,000 343 399 0
2019-11-09 11:57:56 GMT 45.900181 -0.393860 38,000 342 398 0
2019-11-09 11:57:53 GMT 45.894455 -0.391045 38,000 341 397 0
2019-11-09 11:57:47 GMT 45.883530 -0.385526 38,000 341 397 0
2019-11-09 11:57:44 GMT 45.879181 -0.383383 38,000 341 397 0
2019-11-09 11:57:40 GMT 45.870712 -0.379095 38,000 341 396 64
2019-11-09 11:57:35 GMT 45.863113 -0.375277 38,000 341 396 64
2019-11-09 11:57:32 GMT 45.857910 -0.372643 38,000 341 396 64
2019-11-09 11:57:28 GMT 45.849289 -0.368243 38,000 341 396 64
2019-11-09 11:57:25 GMT 45.844940 -0.366032 38,000 341 396 0
2019-11-09 11:57:22 GMT 45.839951 -0.363487 38,000 341 396 0
2019-11-09 11:57:19 GMT 45.834400 -0.360695 38,000 341 398 0
2019-11-09 11:57:16 GMT 45.829376 -0.358154 38,000 341 397 0
2019-11-09 11:57:12 GMT 45.822784 -0.354778 38,000 341 397 0
2019-11-09 11:57:06 GMT 45.812756 -0.349709 38,000 341 398 0
2019-11-09 11:57:02 GMT 45.806519 -0.346550 38,000 341 398 0
2019-11-09 11:56:59 GMT 45.799721 -0.343185 38,000 341 398 0
2019-11-09 11:56:56 GMT 45.794861 -0.340710 38,000 341 398 0
2019-11-09 11:56:52 GMT 45.788643 -0.337555 38,000 341 398 0
2019-11-09 11:56:48 GMT 45.782364 -0.334480 38,000 341 398 0
2019-11-09 11:56:44 GMT 45.774033 -0.330260 38,000 341 398 0
2019-11-09 11:56:41 GMT 45.758194 -0.322355 38,000 341 398 0
2019-11-09 11:56:36 GMT 45.758194 -0.322355 38,000 341 398 0
2019-11-09 11:56:32 GMT 45.753494 -0.319977 38,000 341 399 0
2019-11-09 11:56:28 GMT 45.746567 -0.316527 38,000 341 398 64
2019-11-09 11:56:25 GMT 45.741531 -0.313981 38,000 341 398 0
2019-11-09 11:56:22 GMT 45.729008 -0.307686 38,000 341 398 0
2019-11-09 11:56:15 GMT 45.723770 -0.305072 38,000 341 398 0
2019-11-09 11:56:11 GMT 45.717556 -0.301918 38,000 341 398 0
2019-11-09 11:56:08 GMT 45.711456 -0.298828 38,000 341 398 0
2019-11-09 11:56:01 GMT 45.700333 -0.293266 38,000 341 399 0
2019-11-09 11:55:58 GMT 45.693348 -0.289833 38,000 341 399 0
2019-11-09 11:55:54 GMT 45.685684 -0.285979 38,000 341 399 0
2019-11-09 11:55:51 GMT 45.682388 -0.284372 38,000 341 399 0
2019-11-09 11:55:48 GMT 45.676777 -0.281593 38,000 341 399 0
2019-11-09 11:55:43 GMT 45.666676 -0.276512 38,000 341 399 -64
2019-11-09 11:55:37 GMT 45.658676 -0.272515 38,000 341 399 0
2019-11-09 11:55:33 GMT 45.651684 -0.269096 38,000 341 399 64
2019-11-09 11:55:30 GMT 45.646820 -0.266619 38,000 341 399 0
2019-11-09 11:55:27 GMT 45.641212 -0.263878 38,000 341 399 64
2019-11-09 11:55:24 GMT 45.634785 -0.260651 38,000 341 399 0
2019-11-09 11:55:20 GMT 45.628178 -0.257355 38,000 341 399 0
2019-11-09 11:55:17 GMT 45.623474 -0.254963 38,000 341 399 0
2019-11-09 11:55:11 GMT 45.613510 -0.250008 38,000 341 399 0
2019-11-09 11:55:08 GMT 45.606537 -0.246522 38,000 341 399 0
2019-11-09 11:55:03 GMT 45.597683 -0.242111 38,000 341 398 0
2019-11-09 11:54:59 GMT 45.592609 -0.239571 38,000 341 398 0
2019-11-09 11:54:56 GMT 45.587082 -0.236809 38,000 341 398 0
2019-11-09 11:54:53 GMT 45.575062 -0.230850 38,000 341 398 0
2019-11-09 11:54:49 GMT 45.575062 -0.230850 38,000 341 398 0
2019-11-09 11:54:46 GMT 45.569504 -0.228033 38,000 341 398 0
2019-11-09 11:54:41 GMT 45.559650 -0.223160 38,000 341 397 0
2019-11-09 11:54:37 GMT 45.553555 -0.220139 38,000 341 397 64
2019-11-09 11:54:29 GMT 45.534977 -0.210817 38,000 341 398 0
2019-11-09 11:54:19 GMT 45.522129 -0.204453 38,000 341 398 -64
2019-11-09 11:54:16 GMT 45.516590 -0.201639 38,000 341 398 0
2019-11-09 11:54:10 GMT 45.505978 -0.196347 38,000 341 398 0
2019-11-09 11:54:06 GMT 45.499374 -0.193111 38,000 341 398 0
2019-11-09 11:54:02 GMT 45.493130 -0.189983 38,000 341 398 0
2019-11-09 11:53:58 GMT 45.486008 -0.186441 38,000 341 399 0
2019-11-09 11:53:55 GMT 45.481117 -0.184021 38,000 341 399 0
2019-11-09 11:53:51 GMT 45.467743 -0.177351 38,000 341 399 0
2019-11-09 11:53:48 GMT 45.467743 -0.177351 38,000 341 399 0
2019-11-09 11:53:45 GMT 45.463566 -0.175312 38,000 341 399 0
2019-11-09 11:53:41 GMT 45.450485 -0.168784 38,000 341 399 -64
2019-11-09 11:53:38 GMT 45.450485 -0.168784 38,000 341 400 -64
2019-11-09 11:53:30 GMT 45.436848 -0.162115 38,000 341 400 64
2019-11-09 11:53:26 GMT 45.430050 -0.158766 38,000 341 400 64
2019-11-09 11:53:22 GMT 45.421646 -0.154593 38,000 341 401 64
2019-11-09 11:53:16 GMT 45.411709 -0.149722 38,000 341 401 64
2019-11-09 11:53:13 GMT 45.407684 -0.147727 38,000 341 401 64
2019-11-09 11:53:09 GMT 45.397842 -0.142888 38,000 341 401 0
2019-11-09 11:53:04 GMT 45.391552 -0.139808 38,000 341 401 0
2019-11-09 11:52:57 GMT 45.378750 -0.133444 38,000 341 401 -64
2019-11-09 11:52:54 GMT 45.373348 -0.130764 38,000 341 401 -64
2019-11-09 11:52:49 GMT 45.363876 -0.126147 38,000 341 401 0
2019-11-09 11:52:46 GMT 45.360535 -0.124512 38,000 341 401 0
2019-11-09 11:52:43 GMT 45.354916 -0.121787 38,000 341 401 64
2019-11-09 11:52:39 GMT 45.347744 -0.118237 38,000 341 401 64
2019-11-09 11:52:36 GMT 45.341599 -0.115222 38,000 341 402 64
2019-11-09 11:52:32 GMT 45.335953 -0.112479 38,000 341 402 0
2019-11-09 11:52:29 GMT 45.329636 -0.109394 38,000 341 402 0
2019-11-09 11:52:26 GMT 45.323685 -0.106397 38,000 341 403 0
2019-11-09 11:52:22 GMT 45.318558 -0.103912 38,000 341 403 0
2019-11-09 11:52:18 GMT 45.305923 -0.097700 38,000 341 403 -128
2019-11-09 11:52:15 GMT 45.305923 -0.097700 38,000 341 403 -128
2019-11-09 11:52:10 GMT 45.296585 -0.093116 38,000 341 403 64
2019-11-09 11:52:06 GMT 45.289536 -0.089656 38,000 341 403 64
2019-11-09 11:52:03 GMT 45.277405 -0.083705 38,000 341 403 64
2019-11-09 11:51:59 GMT 45.277405 -0.083705 38,000 341 403 64
2019-11-09 11:51:55 GMT 45.269852 -0.079978 38,000 341 403 0
2019-11-09 11:51:51 GMT 45.264038 -0.077100 38,000 341 403 0
2019-11-09 11:51:48 GMT 45.258957 -0.074550 38,000 341 404 0
2019-11-09 11:51:45 GMT 45.251907 -0.071150 38,000 341 404 0
2019-11-09 11:51:39 GMT 45.241142 -0.065851 38,000 341 404 0
2019-11-09 11:51:35 GMT 45.234249 -0.062501 38,000 341 405 0
2019-11-09 11:51:31 GMT 45.227875 -0.059378 38,000 341 405 0
2019-11-09 11:51:27 GMT 45.221169 -0.056070 38,000 341 405 -64
2019-11-09 11:51:24 GMT 45.215515 -0.053297 38,000 341 405 -64
2019-11-09 11:51:21 GMT 45.209858 -0.050510 38,000 341 405 0
2019-11-09 11:51:14 GMT 45.198349 -0.044861 38,000 341 405 0
2019-11-09 11:51:09 GMT 45.188305 -0.039926 38,000 341 405 0
2019-11-09 11:51:05 GMT 45.182281 -0.037013 38,000 341 405 0
2019-11-09 11:50:59 GMT 45.170059 -0.030997 38,000 341 405 0
2019-11-09 11:50:53 GMT 45.158386 -0.025242 38,000 341 405 0
2019-11-09 11:50:49 GMT 45.154694 -0.023379 38,000 341 405 0
2019-11-09 11:50:46 GMT 45.148682 -0.020469 38,000 341 405 0
2019-11-09 11:50:43 GMT 45.143372 -0.017853 38,000 341 406 0
2019-11-09 11:50:38 GMT 45.133942 -0.013210 38,000 341 406 0
2019-11-09 11:50:35 GMT 45.124374 -0.008567 38,000 341 406 0
2019-11-09 11:50:27 GMT 45.115356 -0.004120 38,000 341 406 0
2019-11-09 11:50:22 GMT 45.104183 0.001273 38,000 341 406 0
2019-11-09 11:50:18 GMT 45.097229 0.004643 38,000 342 406 0
2019-11-09 11:50:12 GMT 45.088531 0.008894 38,000 341 407 0
2019-11-09 11:50:08 GMT 45.080910 0.012594 38,000 341 407 64
2019-11-09 11:50:04 GMT 45.072575 0.016680 38,000 341 407 0
2019-11-09 11:50:01 GMT 45.066010 0.019880 38,000 341 407 -64
2019-11-09 11:49:57 GMT 45.061543 0.022040 38,000 341 407 -64
2019-11-09 11:49:53 GMT 45.054607 0.025389 38,000 341 407 -64
2019-11-09 11:49:50 GMT 45.048553 0.028337 38,000 341 407 0
2019-11-09 11:49:47 GMT 45.043259 0.030932 38,000 341 406 0
2019-11-09 11:49:40 GMT 45.032215 0.036308 38,000 341 407 64
2019-11-09 11:49:35 GMT 45.022999 0.040864 38,000 341 407 0
2019-11-09 11:49:31 GMT 45.014648 0.044926 38,000 341 407 0
2019-11-09 11:49:25 GMT 45.002934 0.050644 38,000 341 407 0
2019-11-09 11:49:21 GMT 44.997395 0.053324 38,000 341 407 0
2019-11-09 11:49:16 GMT 44.988503 0.057611 38,000 341 407 0
2019-11-09 11:49:12 GMT 44.976974 0.063237 38,000 341 407 0
2019-11-09 11:49:06 GMT 44.970905 0.066186 38,000 341 407 0
2019-11-09 11:49:00 GMT 44.959732 0.071679 38,000 341 407 0
2019-11-09 11:48:56 GMT 44.952255 0.075335 38,000 341 407 64
2019-11-09 11:48:53 GMT 44.948318 0.077231 38,000 341 407 64
2019-11-09 11:48:50 GMT 44.942135 0.080254 38,000 341 407 0
2019-11-09 11:48:45 GMT 44.931431 0.085479 38,000 341 407 0
2019-11-09 11:48:42 GMT 44.921841 0.090168 38,000 341 407 0
2019-11-09 11:48:34 GMT 44.914352 0.093842 38,000 341 407 0
2019-11-09 11:48:31 GMT 44.898514 0.101624 38,000 341 407 -64
2019-11-09 11:48:25 GMT 44.898514 0.101624 38,000 341 407 -64
2019-11-09 11:48:22 GMT 44.892464 0.104571 38,000 341 407 0
2019-11-09 11:48:19 GMT 44.887997 0.106715 38,000 341 407 -64
2019-11-09 11:48:15 GMT 44.878918 0.111136 38,000 341 407 0
2019-11-09 11:48:10 GMT 44.871094 0.114964 38,000 341 407 0
2019-11-09 11:48:04 GMT 44.860065 0.120314 38,000 341 407 0
2019-11-09 11:48:01 GMT 44.855621 0.122419 38,000 341 407 0
2019-11-09 11:47:58 GMT 44.849216 0.125539 38,000 341 407 0
2019-11-09 11:47:54 GMT 44.841721 0.129156 38,000 341 407 64
2019-11-09 11:47:50 GMT 44.835709 0.132098 38,000 341 407 0
2019-11-09 11:47:43 GMT 44.817215 0.141057 38,000 342 407 0
2019-11-09 11:47:40 GMT 44.817215 0.141057 38,000 342 407 0
2019-11-09 11:47:31 GMT 44.801193 0.148773 38,000 342 406 0
2019-11-09 11:47:28 GMT 44.796242 0.151129 38,000 342 406 0
2019-11-09 11:47:21 GMT 44.784138 0.156890 38,000 342 406 0
2019-11-09 11:47:17 GMT 44.777206 0.160217 38,000 342 406 0
2019-11-09 11:47:13 GMT 44.762604 0.167149 38,000 342 406 0
2019-11-09 11:47:09 GMT 44.762604 0.167149 38,000 342 406 0
2019-11-09 11:47:01 GMT 44.748432 0.174040 38,000 341 406 0
2019-11-09 11:46:58 GMT 44.743637 0.176384 38,000 341 406 0
2019-11-09 11:46:49 GMT 44.725525 0.185133 38,000 342 406 0
2019-11-09 11:46:41 GMT 44.707603 0.193735 38,000 342 406 0
2019-11-09 11:46:38 GMT 44.694305 0.200108 38,000 342 406 0
2019-11-09 11:46:31 GMT 44.694305 0.200108 38,000 342 406 0
2019-11-09 11:46:27 GMT 44.688812 0.202789 38,000 342 406 0
2019-11-09 11:46:21 GMT 44.675903 0.209008 38,000 342 406 0
2019-11-09 11:46:16 GMT 44.669151 0.212224 38,000 342 406 0
2019-11-09 11:46:09 GMT 44.657272 0.217961 38,000 342 406 0
2019-11-09 11:46:06 GMT 44.650532 0.221200 38,000 342 406 0
2019-11-09 11:46:00 GMT 44.639740 0.226397 38,000 342 405 0
2019-11-09 11:45:57 GMT 44.635124 0.228569 38,000 342 405 0
2019-11-09 11:45:54 GMT 44.628933 0.231584 38,000 342 405 0
2019-11-09 11:45:50 GMT 44.621998 0.234866 38,000 342 405 0
2019-11-09 11:45:47 GMT 44.616714 0.237449 38,000 342 404 0
2019-11-09 11:45:44 GMT 44.611542 0.239868 38,000 342 404 0
2019-11-09 11:45:40 GMT 44.603577 0.243726 38,000 341 405 64
2019-11-09 11:45:37 GMT 44.598999 0.245950 38,000 342 406 -64
2019-11-09 11:45:33 GMT 44.593132 0.248733 38,000 341 405 64
2019-11-09 11:45:29 GMT 44.585861 0.252228 38,000 342 405 -64
2019-11-09 11:45:25 GMT 44.578262 0.255890 38,000 342 406 -64
2019-11-09 11:45:19 GMT 44.566364 0.261595 38,000 342 406 -64
2019-11-09 11:45:14 GMT 44.559631 0.264784 38,000 342 405 -64
2019-11-09 11:45:10 GMT 44.551483 0.268707 38,000 342 404 -64
2019-11-09 11:45:07 GMT 44.547089 0.270800 38,000 342 404 -64
2019-11-09 11:45:04 GMT 44.541046 0.273677 38,000 342 404 0
2019-11-09 11:44:58 GMT 44.529030 0.279414 38,000 342 404 0
2019-11-09 11:44:52 GMT 44.520859 0.283290 38,000 342 403 0
2019-11-09 11:44:49 GMT 44.514877 0.286180 38,000 342 403 0
2019-11-09 11:44:45 GMT 44.507107 0.289865 38,000 342 403 0
2019-11-09 11:44:42 GMT 44.501614 0.292477 38,000 342 403 0
2019-11-09 11:44:37 GMT 44.493164 0.296500 38,000 342 403 0
2019-11-09 11:44:32 GMT 44.484154 0.300717 38,000 342 403 0
2019-11-09 11:44:27 GMT 44.473961 0.305607 38,000 342 402 0
2019-11-09 11:44:24 GMT 44.471493 0.306746 38,000 342 402 0
2019-11-09 11:44:21 GMT 44.466000 0.309292 38,000 342 402 0
2019-11-09 11:44:14 GMT 44.452286 0.315792 38,000 342 401 0
2019-11-09 11:44:11 GMT 44.447388 0.318146 38,000 342 401 0
2019-11-09 11:44:08 GMT 44.440338 0.321481 38,000 342 401 0
2019-11-09 11:44:04 GMT 44.435257 0.323835 38,000 342 400 0
2019-11-09 11:44:01 GMT 44.429642 0.326508 38,000 342 400 0
2019-11-09 11:43:56 GMT 44.419167 0.331533 38,000 342 399 0
2019-11-09 11:43:53 GMT 44.413925 0.334037 38,000 342 399 0
2019-11-09 11:43:50 GMT 44.410603 0.335686 38,000 342 400 0
2019-11-09 11:43:43 GMT 44.398911 0.341296 38,000 342 399 0
2019-11-09 11:43:40 GMT 44.393326 0.343977 38,000 342 399 0
2019-11-09 11:43:34 GMT 44.380527 0.350022 38,000 342 400 0
2019-11-09 11:43:29 GMT 44.374603 0.352870 38,000 342 400 0
2019-11-09 11:43:26 GMT 44.369888 0.355094 38,000 342 400 64
2019-11-09 11:43:23 GMT 44.364075 0.357840 38,000 342 400 0
2019-11-09 11:43:17 GMT 44.353436 0.362951 38,000 342 400 0
2019-11-09 11:43:11 GMT 44.343109 0.367911 38,000 341 401 0
2019-11-09 11:43:08 GMT 44.337700 0.370521 38,000 341 401 0
2019-11-09 11:43:04 GMT 44.328949 0.374741 38,000 342 400 0
2019-11-09 11:42:57 GMT 44.317520 0.380140 38,000 342 400 0
2019-11-09 11:42:51 GMT 44.308235 0.384588 38,000 342 400 0
2019-11-09 11:42:46 GMT 44.299850 0.388576 38,000 342 401 0
2019-11-09 11:42:41 GMT 44.290695 0.392957 38,000 342 401 0
2019-11-09 11:42:38 GMT 44.284561 0.395900 38,000 342 401 0
2019-11-09 11:42:31 GMT 44.271927 0.401917 38,000 342 401 0
2019-11-09 11:42:26 GMT 44.254898 0.409960 38,000 342 402 0
2019-11-09 11:42:22 GMT 44.254898 0.409960 38,000 342 402 -64
2019-11-09 11:42:17 GMT 44.247856 0.413327 38,000 342 403 0
2019-11-09 11:42:11 GMT 44.237457 0.418200 38,000 342 402 0
2019-11-09 11:42:07 GMT 44.229721 0.421862 38,000 342 403 0
2019-11-09 11:41:59 GMT 44.217041 0.427878 38,000 342 402 0
2019-11-09 11:41:56 GMT 44.211594 0.430429 38,000 342 402 0
2019-11-09 11:41:50 GMT 44.201210 0.435367 38,000 342 402 0
2019-11-09 11:41:43 GMT 44.186417 0.442327 38,000 342 402 0
2019-11-09 11:41:40 GMT 44.182892 0.443988 38,000 342 403 0
2019-11-09 11:41:33 GMT 44.169136 0.450439 38,000 342 403 0
2019-11-09 11:41:29 GMT 44.162430 0.453633 38,000 342 404 -64
2019-11-09 11:41:25 GMT 44.156425 0.456456 38,000 342 403 0
2019-11-09 11:41:21 GMT 44.150070 0.459446 38,000 342 404 -64
2019-11-09 11:41:18 GMT 44.144623 0.462001 38,000 342 404 -64
2019-11-09 11:41:15 GMT 44.138271 0.465022 38,000 342 403 -64
2019-11-09 11:41:12 GMT 44.132080 0.467965 38,000 342 403 0
2019-11-09 11:41:08 GMT 44.126266 0.470751 38,000 342 403 -64
2019-11-09 11:41:04 GMT 44.118988 0.474201 38,000 342 403 -64
2019-11-09 11:40:59 GMT 44.110527 0.478232 38,000 342 404 -64
2019-11-09 11:40:54 GMT 44.100998 0.482760 38,000 342 403 0
2019-11-09 11:40:49 GMT 44.091660 0.487231 38,000 342 403 0
2019-11-09 11:40:46 GMT 44.086899 0.489466 38,000 342 403 64
2019-11-09 11:40:43 GMT 44.082825 0.491383 38,000 342 403 64
2019-11-09 11:40:39 GMT 44.075100 0.495104 38,000 342 403 0
2019-11-09 11:40:35 GMT 44.066952 0.498962 38,000 342 403 0
2019-11-09 11:40:30 GMT 44.059525 0.502433 38,000 342 404 0
2019-11-09 11:40:25 GMT 44.050323 0.506776 38,000 342 404 -64
2019-11-09 11:40:21 GMT 44.042038 0.510737 38,000 342 404 0
2019-11-09 11:40:12 GMT 44.028030 0.517252 38,000 342 404 0
2019-11-09 11:40:07 GMT 44.019379 0.521327 38,000 342 404 0
2019-11-09 11:40:04 GMT 44.003269 0.528913 38,000 342 404 0
2019-11-09 11:39:59 GMT 44.003269 0.528913 38,000 342 404 0
2019-11-09 11:39:55 GMT 43.995850 0.532390 38,000 342 404 0
2019-11-09 11:39:50 GMT 43.988022 0.536031 38,000 342 404 0
2019-11-09 11:39:47 GMT 43.983948 0.537947 38,000 342 405 64
2019-11-09 11:39:44 GMT 43.977402 0.541013 38,000 342 405 0
2019-11-09 11:39:41 GMT 43.973145 0.542993 38,000 342 405 -64
2019-11-09 11:39:36 GMT 43.963211 0.547592 38,000 342 404 0
2019-11-09 11:39:31 GMT 43.954903 0.551474 38,000 342 404 0
2019-11-09 11:39:24 GMT 43.941605 0.557620 38,000 342 404 64
2019-11-09 11:39:20 GMT 43.935955 0.560237 38,000 342 404 64
2019-11-09 11:39:16 GMT 43.929207 0.563376 38,000 342 404 64
2019-11-09 11:39:13 GMT 43.923386 0.566123 38,000 342 404 0
2019-11-09 11:39:10 GMT 43.918076 0.568542 38,000 342 405 0
2019-11-09 11:39:03 GMT 43.905834 0.574232 38,000 342 404 0
2019-11-09 11:38:59 GMT 43.887405 0.582850 38,000 342 405 -64
2019-11-09 11:38:53 GMT 43.887405 0.582850 38,000 342 404 0
2019-11-09 11:38:48 GMT 43.878525 0.587002 38,000 342 404 0
2019-11-09 11:38:45 GMT 43.874275 0.588946 38,000 342 404 0
2019-11-09 11:38:42 GMT 43.868591 0.591601 38,000 342 404 0
2019-11-09 11:38:39 GMT 43.862961 0.594243 38,000 342 404 0
2019-11-09 11:38:36 GMT 43.856918 0.597094 38,000 342 404 -64
2019-11-09 11:38:32 GMT 43.844559 0.602907 38,000 342 404 0
2019-11-09 11:38:29 GMT 43.844559 0.602907 38,000 342 404 0
2019-11-09 11:38:22 GMT 43.830563 0.609480 38,000 342 404 0
2019-11-09 11:38:16 GMT 43.822952 0.613063 38,000 342 405 -64
2019-11-09 11:38:12 GMT 43.815151 0.616673 38,000 342 405 64
2019-11-09 11:38:08 GMT 43.807709 0.620153 38,000 342 405 0
2019-11-09 11:38:02 GMT 43.796532 0.625305 38,000 342 404 -128
2019-11-09 11:37:58 GMT 43.789455 0.628640 38,000 342 405 -64
2019-11-09 11:37:55 GMT 43.784847 0.630864 38,000 342 405 -64
2019-11-09 11:37:49 GMT 43.774235 0.635834 38,000 342 405 -64
2019-11-09 11:37:45 GMT 43.766235 0.639570 38,000 342 405 64
2019-11-09 11:37:42 GMT 43.760056 0.642445 38,000 342 405 64
2019-11-09 11:37:37 GMT 43.752029 0.646166 38,000 342 406 64
2019-11-09 11:37:34 GMT 43.748337 0.647874 38,000 342 405 64
2019-11-09 11:37:28 GMT 43.735519 0.653814 38,000 342 405 64
2019-11-09 11:37:23 GMT 43.728611 0.657022 38,000 342 405 0
2019-11-09 11:37:20 GMT 43.722565 0.659818 38,000 342 405 64
2019-11-09 11:37:17 GMT 43.717579 0.662122 38,000 342 405 0
2019-11-09 11:37:13 GMT 43.710644 0.665392 38,000 342 405 -64
2019-11-09 11:37:07 GMT 43.691837 0.674155 38,000 342 405 0
2019-11-09 11:37:03 GMT 43.691837 0.674155 38,000 342 405 0
2019-11-09 11:36:57 GMT 43.680847 0.679321 38,000 342 405 64
2019-11-09 11:36:52 GMT 43.672668 0.683069 38,000 342 405 64
2019-11-09 11:36:46 GMT 43.662926 0.687626 38,000 342 404 0
2019-11-09 11:36:40 GMT 43.651241 0.693054 38,000 342 404 0
2019-11-09 11:36:36 GMT 43.644306 0.696193 38,000 342 404 -64
2019-11-09 11:36:33 GMT 43.638977 0.698654 38,000 342 404 0
2019-11-09 11:36:30 GMT 43.633694 0.701098 38,000 342 404 0
2019-11-09 11:36:27 GMT 43.626938 0.704211 38,000 342 404 0
2019-11-09 11:36:23 GMT 43.621635 0.706656 38,000 342 403 0
2019-11-09 11:36:19 GMT 43.609406 0.712259 38,000 342 403 0
2019-11-09 11:36:13 GMT 43.604084 0.714700 38,000 342 403 0
2019-11-09 11:36:08 GMT 43.594868 0.718951 38,000 342 404 0
2019-11-09 11:36:03 GMT 43.585323 0.723397 38,000 342 403 0
2019-11-09 11:35:58 GMT 43.576664 0.727386 38,000 342 403 0
2019-11-09 11:35:54 GMT 43.570473 0.730264 38,000 342 403 0
2019-11-09 11:35:51 GMT 43.565353 0.732683 38,000 342 403 0
2019-11-09 11:35:48 GMT 43.560059 0.735126 38,000 342 403 0
2019-11-09 11:35:45 GMT 43.555111 0.737392 38,000 342 403 0
2019-11-09 11:35:41 GMT 43.548065 0.740683 38,000 342 402 -64
2019-11-09 11:35:37 GMT 43.539982 0.744455 38,000 342 401 0
2019-11-09 11:35:31 GMT 43.530113 0.749032 38,000 342 401 0
2019-11-09 11:35:28 GMT 43.524666 0.751517 38,000 342 401 0
2019-11-09 11:35:25 GMT 43.518677 0.754288 38,000 342 402 0
2019-11-09 11:35:22 GMT 43.514282 0.756332 38,000 342 402 0
2019-11-09 11:35:19 GMT 43.500183 0.762911 38,000 342 401 -64
2019-11-09 11:35:14 GMT 43.500183 0.762911 38,000 342 400 64
2019-11-09 11:35:08 GMT 43.488968 0.768149 38,000 342 401 0
2019-11-09 11:35:05 GMT 43.483154 0.770831 38,000 342 401 64
2019-11-09 11:35:01 GMT 43.475601 0.774340 38,000 342 401 -64
2019-11-09 11:34:58 GMT 43.471024 0.776452 38,000 342 401 -64
2019-11-09 11:34:55 GMT 43.466988 0.778329 38,000 342 401 0
2019-11-09 11:34:52 GMT 43.461590 0.780879 38,000 342 401 -64
2019-11-09 11:34:47 GMT 43.453163 0.784803 38,000 342 400 0
2019-11-09 11:34:43 GMT 43.445801 0.788205 38,000 342 400 64
2019-11-09 11:34:39 GMT 43.429653 0.795659 38,000 342 400 0
2019-11-09 11:34:35 GMT 43.423508 0.798536 38,000 342 400 0
2019-11-09 11:34:28 GMT 43.417923 0.801108 38,000 342 400 0
2019-11-09 11:34:24 GMT 43.412663 0.803506 38,000 342 399 64
2019-11-09 11:34:21 GMT 43.406021 0.806601 38,000 342 400 0
2019-11-09 11:34:17 GMT 43.399719 0.809522 38,000 342 400 0
2019-11-09 11:34:12 GMT 43.389198 0.814362 38,000 342 400 0
2019-11-09 11:34:07 GMT 43.381302 0.817970 38,000 342 400 0
2019-11-09 11:34:04 GMT 43.376587 0.820206 38,000 342 400 0
2019-11-09 11:34:01 GMT 43.370953 0.822798 38,000 342 400 0
2019-11-09 11:33:57 GMT 43.363953 0.826019 38,000 342 400 -64
2019-11-09 11:33:50 GMT 43.353260 0.830906 38,000 342 399 0
2019-11-09 11:33:47 GMT 43.346416 0.834111 38,000 342 399 -64
2019-11-09 11:33:40 GMT 43.334175 0.839735 38,000 342 399 0
2019-11-09 11:33:37 GMT 43.328568 0.842243 38,000 342 399 -64
2019-11-09 11:33:34 GMT 43.321884 0.845293 38,000 342 400 -64
2019-11-09 11:33:30 GMT 43.316437 0.847778 38,000 342 400 0
2019-11-09 11:33:26 GMT 43.310291 0.850590 38,000 342 400 0
2019-11-09 11:33:21 GMT 43.302238 0.854252 38,000 342 401 0
2019-11-09 11:33:16 GMT 43.292175 0.858786 38,000 342 403 0
2019-11-09 11:33:11 GMT 43.278545 0.864977 38,000 342 404 0
2019-11-09 11:33:08 GMT 43.278545 0.864977 38,000 342 405 0
2019-11-09 11:33:05 GMT 43.273224 0.867473 38,000 342 406 64
2019-11-09 11:33:01 GMT 43.266266 0.870603 37,975 342 406 64
2019-11-09 11:32:58 GMT 43.258991 0.874002 38,000 342 407 -64
2019-11-09 11:32:55 GMT 43.255051 0.875776 38,000 342 407 -64
2019-11-09 11:32:52 GMT 43.250793 0.877757 38,000 342 408 -64
2019-11-09 11:32:49 GMT 43.245445 0.880214 38,000 342 407 0
2019-11-09 11:32:46 GMT 43.237717 0.883745 38,000 342 407 0
2019-11-09 11:32:42 GMT 43.232391 0.886188 38,000 342 407 0
2019-11-09 11:32:38 GMT 43.224358 0.889893 38,000 342 407 64
2019-11-09 11:32:35 GMT 43.220032 0.891809 38,000 342 407 64
2019-11-09 11:32:31 GMT 43.213074 0.895002 38,000 342 407 64
2019-11-09 11:32:28 GMT 43.206108 0.898132 38,000 342 407 64
2019-11-09 11:32:25 GMT 43.201630 0.900176 38,000 342 407 0
2019-11-09 11:32:22 GMT 43.196659 0.902448 38,000 342 407 -64
2019-11-09 11:32:19 GMT 43.191650 0.904775 38,000 342 407 -64
2019-11-09 11:32:15 GMT 43.182552 0.908988 38,000 342 407 -64
2019-11-09 11:32:12 GMT 43.178272 0.910950 38,000 342 407 0
2019-11-09 11:32:07 GMT 43.164539 0.917228 38,000 342 406 64
2019-11-09 11:32:04 GMT 43.158298 0.920105 38,000 342 406 64
2019-11-09 11:31:58 GMT 43.154018 0.922001 38,000 342 407 -64
2019-11-09 11:31:55 GMT 43.146332 0.925534 38,000 342 407 0
2019-11-09 11:31:51 GMT 43.141846 0.927514 38,000 342 407 0
2019-11-09 11:31:47 GMT 43.133835 0.931219 38,000 342 406 -192
2019-11-09 11:31:44 GMT 43.122547 0.936257 38,000 342 407 256
2019-11-09 11:31:36 GMT 43.114868 0.939723 38,000 342 406 -128
2019-11-09 11:31:31 GMT 43.105232 0.944105 38,000 342 407 -64
2019-11-09 11:31:27 GMT 43.097717 0.947571 38,000 341 407 64
2019-11-09 11:31:24 GMT 43.092430 0.950121 38,000 342 407 -64
2019-11-09 11:31:21 GMT 43.087051 0.952617 38,000 343 407 64
2019-11-09 11:31:14 GMT 43.072861 0.958557 38,000 346 409 0
2019-11-09 11:31:10 GMT 43.068466 0.960154 38,000 348 409 64
2019-11-09 11:31:07 GMT 43.060410 0.962773 38,000 349 410 0
2019-11-09 11:31:03 GMT 43.055237 0.964306 38,000 350 411 -64
2019-11-09 11:31:00 GMT 43.049648 0.965816 38,000 351 411 -64
2019-11-09 11:30:56 GMT 43.042385 0.967451 38,000 353 411 0
2019-11-09 11:30:52 GMT 43.033726 0.969020 38,000 355 413 0
2019-11-09 11:30:46 GMT 43.022694 0.970459 38,000 356 412 0
2019-11-09 11:30:43 GMT 43.016647 0.971140 38,000 356 412 0
2019-11-09 11:30:39 GMT 43.010170 0.971832 38,000 356 412 -64
2019-11-09 11:30:35 GMT 43.002960 0.972609 38,000 356 412 0
2019-11-09 11:30:30 GMT 42.993622 0.973631 38,000 356 412 0
2019-11-09 11:30:26 GMT 42.985291 0.974526 38,000 356 412 64
2019-11-09 11:30:23 GMT 42.977509 0.975420 38,000 356 412 0
2019-11-09 11:30:19 GMT 42.971813 0.976018 38,000 356 412 0
2019-11-09 11:30:15 GMT 42.958313 0.977587 38,000 356 412 -128
2019-11-09 11:30:12 GMT 42.958313 0.977587 38,000 356 412 -128
2019-11-09 11:30:09 GMT 42.950909 0.978372 38,025 356 412 0
2019-11-09 11:30:06 GMT 42.946163 0.978960 38,000 356 412 128
2019-11-09 11:30:02 GMT 42.938759 0.979745 38,000 356 412 -64
2019-11-09 11:29:59 GMT 42.933838 0.980274 38,000 356 412 0
2019-11-09 11:29:56 GMT 42.927773 0.980922 38,000 356 412 -64
2019-11-09 11:29:53 GMT 42.922653 0.981511 38,000 356 412 64
2019-11-09 11:29:49 GMT 42.914085 0.982426 38,000 356 412 64
2019-11-09 11:29:46 GMT 42.908222 0.983015 38,000 356 412 64
2019-11-09 11:29:41 GMT 42.897980 0.984126 38,000 356 412 -64
2019-11-09 11:29:36 GMT 42.888474 0.985193 38,000 356 411 0
2019-11-09 11:29:31 GMT 42.880875 0.986023 38,000 356 411 0
2019-11-09 11:29:28 GMT 42.875217 0.986612 38,000 356 411 -64
2019-11-09 11:29:25 GMT 42.868744 0.987300 38,000 356 411 -128
2019-11-09 11:29:21 GMT 42.861008 0.988195 38,025 356 410 -128
2019-11-09 11:29:18 GMT 42.855713 0.988770 38,025 356 410 0
2019-11-09 11:29:15 GMT 42.849655 0.989408 38,000 356 410 576
2019-11-09 11:29:11 GMT 42.842285 0.990239 37,975 356 410 640
2019-11-09 11:29:08 GMT 42.837204 0.990813 37,950 356 410 640
2019-11-09 11:29:05 GMT 42.830200 0.991516 37,875 356 410 576
2019-11-09 11:28:59 GMT 42.820587 0.992538 37,825 356 410 960
2019-11-09 11:28:55 GMT 42.811523 0.993496 37,750 356 410 832
2019-11-09 11:28:50 GMT 42.800732 0.994710 37,700 356 410 576
2019-11-09 11:28:47 GMT 42.798248 0.994949 37,675 356 409 704
2019-11-09 11:28:44 GMT 42.791656 0.995698 37,625 356 409 768
2019-11-09 11:28:39 GMT 42.782776 0.996635 37,575 356 410 832
2019-11-09 11:28:35 GMT 42.772198 0.997776 37,500 356 410 1024
2019-11-09 11:28:27 GMT 42.759750 0.999194 37,350 356 411 1216
2019-11-09 11:28:24 GMT 42.754787 0.999692 37,225 356 412 1280
2019-11-09 11:28:19 GMT 42.743591 1.000879 37,175 356 413 1472
2019-11-09 11:28:16 GMT 42.738052 1.001504 37,100 356 413 1472
2019-11-09 11:28:13 GMT 42.732533 1.002055 37,025 356 414 1216
2019-11-09 11:28:10 GMT 42.726425 1.002752 36,975 356 414 960
2019-11-09 11:28:07 GMT 42.721828 1.003269 36,975 356 414 960
2019-11-09 11:28:04 GMT 42.714378 1.004099 36,875 356 415 1216
2019-11-09 11:27:57 GMT 42.702347 1.005436 36,775 356 416 896
2019-11-09 11:27:53 GMT 42.695618 1.006123 36,725 356 416 960
2019-11-09 11:27:48 GMT 42.676811 1.008251 36,600 356 416 704
2019-11-09 11:27:44 GMT 42.676811 1.008251 36,575 356 415 704
2019-11-09 11:27:38 GMT 42.658237 1.010295 36,500 356 415 576
2019-11-09 11:27:34 GMT 42.658237 1.010295 36,450 356 414 512
2019-11-09 11:27:25 GMT 42.641430 1.012084 36,400 356 414 512
2019-11-09 11:27:22 GMT 42.635517 1.012722 36,375 356 413 384
2019-11-09 11:27:19 GMT 42.627365 1.013614 36,350 356 412 448
2019-11-09 11:27:15 GMT 42.621647 1.014191 36,325 356 412 448
2019-11-09 11:27:12 GMT 42.616562 1.014737 36,300 356 411 384
2019-11-09 11:27:08 GMT 42.607086 1.015798 36,250 356 409 512
2019-11-09 11:27:03 GMT 42.597626 1.016746 36,225 356 409 512
2019-11-09 11:26:56 GMT 42.585941 1.018024 36,175 356 408 512
2019-11-09 11:26:53 GMT 42.580868 1.018535 36,075 356 407 704
2019-11-09 11:26:47 GMT 42.569458 1.019793 36,075 356 407 768
2019-11-09 11:26:42 GMT 42.559296 1.020917 36,025 356 406 192
2019-11-09 11:26:35 GMT 42.546745 1.022303 36,000 356 404 0
2019-11-09 11:26:32 GMT 42.542088 1.022878 36,000 356 404 0
2019-11-09 11:26:28 GMT 42.532379 1.023976 36,000 356 404 0
2019-11-09 11:26:25 GMT 42.528683 1.024411 36,000 356 404 64
2019-11-09 11:26:22 GMT 42.523087 1.024974 36,000 356 404 0
2019-11-09 11:26:15 GMT 42.509872 1.026455 36,000 356 404 0
2019-11-09 11:26:11 GMT 42.502808 1.027284 36,000 356 403 -64
2019-11-09 11:26:07 GMT 42.493652 1.028283 36,000 356 403 -64
2019-11-09 11:26:04 GMT 42.483433 1.029393 36,000 356 403 0
2019-11-09 11:25:57 GMT 42.475845 1.030160 36,000 356 403 0
2019-11-09 11:25:54 GMT 42.470074 1.030799 36,000 356 402 0
2019-11-09 11:25:51 GMT 42.465462 1.031310 36,000 356 402 0
2019-11-09 11:25:44 GMT 42.452847 1.032651 36,000 356 402 0
2019-11-09 11:25:40 GMT 42.444839 1.033545 36,000 356 402 0
2019-11-09 11:25:36 GMT 42.436508 1.034439 36,000 356 402 0
2019-11-09 11:25:33 GMT 42.430939 1.035024 36,000 356 402 0
2019-11-09 11:25:30 GMT 42.426872 1.035461 36,000 356 402 0
2019-11-09 11:25:25 GMT 42.415001 1.036739 36,000 356 402 0
2019-11-09 11:25:20 GMT 42.407227 1.037584 36,000 356 401 -64
2019-11-09 11:25:16 GMT 42.398521 1.038527 36,000 356 401 -64
2019-11-09 11:25:13 GMT 42.393913 1.039038 36,000 356 401 0
2019-11-09 11:25:07 GMT 42.383762 1.040124 36,000 356 401 0
2019-11-09 11:25:03 GMT 42.375961 1.040955 36,000 356 401 0
2019-11-09 11:24:58 GMT 42.365250 1.042141 36,000 356 401 0
2019-11-09 11:24:53 GMT 42.357651 1.042952 36,000 356 401 0
2019-11-09 11:24:47 GMT 42.346008 1.044148 36,000 356 401 0
2019-11-09 11:24:44 GMT 42.340282 1.044787 36,000 356 401 0
2019-11-09 11:24:36 GMT 42.324364 1.046448 36,000 356 402 0
2019-11-09 11:24:33 GMT 42.321396 1.046760 36,000 356 402 0
2019-11-09 11:24:28 GMT 42.311607 1.047789 36,000 356 402 0
2019-11-09 11:24:25 GMT 42.298248 1.049194 36,000 356 402 0
2019-11-09 11:24:17 GMT 42.290287 1.050089 36,000 356 402 0
2019-11-09 11:24:13 GMT 42.266327 1.052628 36,000 356 403 0
2019-11-09 11:24:04 GMT 42.266327 1.052628 36,000 356 403 0
2019-11-09 11:23:54 GMT 42.247879 1.054625 36,000 356 404 0
2019-11-09 11:23:45 GMT 42.230373 1.056540 36,000 356 405 0
2019-11-09 11:23:42 GMT 42.225719 1.057051 36,000 356 405 -64
2019-11-09 11:23:36 GMT 42.215240 1.058183 36,000 356 405 -64
2019-11-09 11:23:33 GMT 42.207748 1.058967 36,000 356 405 0
2019-11-09 11:23:24 GMT 42.190388 1.060756 36,000 356 405 0
2019-11-09 11:23:15 GMT 42.176376 1.062241 36,000 356 406 0
2019-11-09 11:23:11 GMT 42.167576 1.063183 36,000 356 406 0
2019-11-09 11:23:05 GMT 42.157242 1.064301 36,000 356 406 64
2019-11-09 11:23:01 GMT 42.149002 1.065227 36,000 356 407 0
2019-11-09 11:22:55 GMT 42.138153 1.066360 36,000 356 407 0
2019-11-09 11:22:51 GMT 42.129311 1.067335 36,000 356 407 0
2019-11-09 11:22:41 GMT 42.111061 1.069251 36,000 356 408 0
2019-11-09 11:22:31 GMT 42.092068 1.071295 36,000 356 408 0
2019-11-09 11:22:24 GMT 42.079834 1.072603 36,000 356 408 0
2019-11-09 11:22:21 GMT 42.071911 1.073466 36,000 356 408 0
2019-11-09 11:22:13 GMT 42.057404 1.074975 36,000 356 408 0
2019-11-09 11:22:10 GMT 42.052734 1.075474 36,000 356 408 0
2019-11-09 11:22:01 GMT 42.035568 1.077347 36,000 356 408 0
2019-11-09 11:21:53 GMT 42.020920 1.078907 36,000 356 408 64
2019-11-09 11:21:50 GMT 42.015839 1.079469 36,000 356 408 0
2019-11-09 11:21:45 GMT 42.005676 1.080593 36,000 356 408 0
2019-11-09 11:21:41 GMT 41.997379 1.081515 36,000 356 408 0
2019-11-09 11:21:32 GMT 41.981598 1.083277 36,000 356 408 0
2019-11-09 11:21:29 GMT 41.976151 1.083901 36,000 356 408 0
2019-11-09 11:21:25 GMT 41.967270 1.084837 36,000 356 408 0
2019-11-09 11:21:20 GMT 41.958618 1.085774 36,000 356 408 0
2019-11-09 11:21:14 GMT 41.948090 1.086960 36,000 356 408 0
2019-11-09 11:21:09 GMT 41.938889 1.087959 36,000 356 407 0
2019-11-09 11:21:04 GMT 41.928726 1.089020 36,000 356 407 0
2019-11-09 11:20:59 GMT 41.919525 1.090019 36,000 356 407 0
2019-11-09 11:20:54 GMT 41.909958 1.091032 36,000 356 407 0
2019-11-09 11:20:49 GMT 41.900784 1.091990 36,000 356 407 0
2019-11-09 11:20:43 GMT 41.890091 1.093140 36,000 356 406 0
2019-11-09 11:20:40 GMT 41.872108 1.095056 36,000 356 406 0
2019-11-09 11:20:34 GMT 41.872108 1.095056 36,000 356 406 0
2019-11-09 11:20:29 GMT 41.862751 1.096014 36,000 356 406 0
2019-11-09 11:20:24 GMT 41.852417 1.097135 36,000 356 406 0
2019-11-09 11:20:19 GMT 41.843994 1.098009 36,000 356 406 0
2019-11-09 11:20:13 GMT 41.833878 1.099132 36,000 356 406 0
2019-11-09 11:20:08 GMT 41.824356 1.100131 36,000 356 406 0
2019-11-09 11:20:04 GMT 41.815922 1.101060 36,000 356 406 0
2019-11-09 11:19:58 GMT 41.804855 1.102191 36,000 356 406 0
2019-11-09 11:19:52 GMT 41.794365 1.103296 36,000 356 406 -64
2019-11-09 11:19:48 GMT 41.786682 1.104126 36,000 356 406 -64
2019-11-09 11:19:44 GMT 41.776566 1.105125 36,000 356 406 0
2019-11-09 11:19:39 GMT 41.767410 1.106123 36,000 356 406 0
2019-11-09 11:19:33 GMT 41.757824 1.107064 36,000 356 406 0
2019-11-09 11:19:28 GMT 41.748459 1.108059 36,000 356 406 0
2019-11-09 11:19:23 GMT 41.730331 1.109994 36,000 356 406 -64
2019-11-09 11:19:18 GMT 41.730331 1.109994 36,000 356 406 0
2019-11-09 11:19:12 GMT 41.718338 1.111242 36,000 356 406 -64
2019-11-09 11:19:08 GMT 41.710854 1.112046 36,000 356 406 -64
2019-11-09 11:19:04 GMT 41.703735 1.112803 36,000 356 405 0
2019-11-09 11:19:01 GMT 41.697769 1.113452 36,000 356 405 0
2019-11-09 11:18:57 GMT 41.679840 1.115300 36,000 356 405 64
2019-11-09 11:18:51 GMT 41.679840 1.115300 36,000 356 405 0
2019-11-09 11:18:48 GMT 41.673294 1.116049 36,000 356 405 0
2019-11-09 11:18:41 GMT 41.660980 1.117297 36,000 356 404 0
2019-11-09 11:18:37 GMT 41.653126 1.118178 36,000 356 404 0
2019-11-09 11:18:31 GMT 41.642326 1.119328 36,000 356 404 0
2019-11-09 11:18:27 GMT 41.634506 1.120094 36,000 356 404 0
2019-11-09 11:18:22 GMT 41.623894 1.121244 36,000 356 403 0
2019-11-09 11:18:16 GMT 41.615158 1.122166 36,000 356 403 0
2019-11-09 11:18:09 GMT 41.601425 1.123602 36,000 356 403 0
2019-11-09 11:18:05 GMT 41.594704 1.124310 36,000 356 402 0
2019-11-09 11:18:00 GMT 41.584694 1.125332 36,000 356 402 0
2019-11-09 11:17:56 GMT 41.577301 1.126161 36,000 356 401 0
2019-11-09 11:17:46 GMT 41.558765 1.128079 36,000 356 401 0
2019-11-09 11:17:40 GMT 41.547134 1.129345 36,000 356 400 0
2019-11-09 11:17:35 GMT 41.539028 1.130187 36,000 356 400 0
2019-11-09 11:17:29 GMT 41.528503 1.131280 36,000 356 400 0
2019-11-09 11:17:26 GMT 41.521523 1.132039 36,000 356 399 0
2019-11-09 11:17:16 GMT 41.502205 1.134083 36,000 356 398 0
2019-11-09 11:17:10 GMT 41.491543 1.135233 36,000 356 398 0
2019-11-09 11:17:05 GMT 41.483814 1.135999 36,000 356 398 0
2019-11-09 11:16:59 GMT 41.472290 1.137210 36,000 356 397 0
2019-11-09 11:16:55 GMT 41.465149 1.137959 36,000 356 397 0
2019-11-09 11:16:48 GMT 41.452377 1.139332 36,000 356 396 0
2019-11-09 11:16:44 GMT 41.445969 1.139956 36,000 356 396 0
2019-11-09 11:16:37 GMT 41.433029 1.141301 36,000 356 395 0
2019-11-09 11:16:34 GMT 41.427200 1.141891 36,000 356 395 0
2019-11-09 11:16:28 GMT 41.416267 1.143025 36,000 356 394 0
2019-11-09 11:16:24 GMT 41.407379 1.143919 36,000 356 394 0
2019-11-09 11:16:19 GMT 41.397228 1.145005 36,000 356 393 0
2019-11-09 11:16:14 GMT 41.390854 1.145644 36,000 356 393 0
2019-11-09 11:16:08 GMT 41.380188 1.146729 36,000 356 392 0
2019-11-09 11:16:04 GMT 41.371857 1.147583 36,000 356 392 0
2019-11-09 11:15:58 GMT 41.361557 1.148682 36,000 356 392 0
2019-11-09 11:15:53 GMT 41.353424 1.149507 36,000 356 392 0
2019-11-09 11:15:48 GMT 41.343510 1.150568 36,000 356 391 0
2019-11-09 11:15:44 GMT 41.333908 1.151550 36,000 356 391 0
2019-11-09 11:15:37 GMT 41.323631 1.152628 36,000 356 391 0
2019-11-09 11:15:33 GMT 41.316975 1.153315 36,000 356 391 0
2019-11-09 11:15:27 GMT 41.305801 1.154563 36,000 356 390 0
2019-11-09 11:15:23 GMT 41.298248 1.155334 36,000 356 390 0
2019-11-09 11:15:18 GMT 41.288017 1.156436 36,000 356 390 0
2019-11-09 11:15:13 GMT 41.280289 1.157310 36,000 356 390 0
2019-11-09 11:15:07 GMT 41.270050 1.158447 36,000 356 389 0
2019-11-09 11:15:02 GMT 41.260712 1.159546 36,000 356 389 0
2019-11-09 11:14:57 GMT 41.251705 1.160556 36,000 356 389 0
2019-11-09 11:14:52 GMT 41.241852 1.161682 36,000 356 389 0
2019-11-09 11:14:46 GMT 41.231827 1.162781 36,000 356 389 0
2019-11-09 11:14:42 GMT 41.225033 1.163490 36,000 356 388 -64
2019-11-09 11:14:36 GMT 41.214111 1.164673 36,000 356 388 0
2019-11-09 11:14:31 GMT 41.205154 1.165612 36,000 356 388 -64
2019-11-09 11:14:27 GMT 41.196716 1.166443 36,000 356 388 0
2019-11-09 11:14:24 GMT 41.191376 1.166923 36,000 356 387 0
2019-11-09 11:14:21 GMT 41.187973 1.167236 36,000 356 387 0
2019-11-09 11:14:16 GMT 41.177994 1.168396 36,000 353 385 0
2019-11-09 11:14:12 GMT 41.169525 1.169800 36,000 352 384 0
2019-11-09 11:14:06 GMT 41.160187 1.171814 36,000 349 383 0
2019-11-09 11:14:01 GMT 41.152359 1.173889 36,000 347 383 64
2019-11-09 11:13:56 GMT 41.143021 1.176819 36,000 345 383 0
2019-11-09 11:13:52 GMT 41.124947 1.184151 36,000 340 382 64
2019-11-09 11:13:45 GMT 41.124947 1.184151 36,000 340 382 64
2019-11-09 11:13:42 GMT 41.119949 1.186584 36,000 339 381 64
2019-11-09 11:13:36 GMT 41.108604 1.192516 36,000 339 381 0
2019-11-09 11:13:31 GMT 41.102554 1.195700 36,000 339 381 -64
2019-11-09 11:13:25 GMT 41.092033 1.201193 36,000 339 381 -64
2019-11-09 11:13:21 GMT 41.086121 1.204285 36,000 339 381 0
2019-11-09 11:13:15 GMT 41.075787 1.209682 36,000 339 381 64
2019-11-09 11:13:12 GMT 41.069870 1.212769 36,000 339 381 64
2019-11-09 11:13:05 GMT 41.058376 1.218796 36,000 339 381 0
2019-11-09 11:13:01 GMT 41.052975 1.221667 36,000 339 381 64
2019-11-09 11:12:54 GMT 41.041801 1.227472 36,000 339 381 0
2019-11-09 11:12:51 GMT 41.036358 1.230281 36,000 339 381 0
2019-11-09 11:12:44 GMT 41.024857 1.236336 36,000 339 381 0
2019-11-09 11:12:40 GMT 41.018784 1.239502 36,000 339 382 0
2019-11-09 11:12:35 GMT 41.008255 1.244934 36,000 339 381 0
2019-11-09 11:12:30 GMT 41.002373 1.248009 36,000 339 381 0
2019-11-09 11:12:24 GMT 40.991684 1.253540 36,000 339 380 0
2019-11-09 11:12:20 GMT 40.985413 1.256775 36,000 339 381 0
2019-11-09 11:12:11 GMT 40.968670 1.265363 36,000 339 380 0
2019-11-09 11:12:03 GMT 40.958195 1.270731 36,000 339 380 0
2019-11-09 11:12:00 GMT 40.952099 1.273852 36,000 339 379 0
2019-11-09 11:11:53 GMT 40.935242 1.282532 36,000 339 379 0
2019-11-09 11:11:44 GMT 40.924957 1.287835 36,000 339 379 0
2019-11-09 11:11:39 GMT 40.918903 1.290956 36,000 339 379 0
2019-11-09 11:11:33 GMT 40.907822 1.296692 36,000 339 379 0
2019-11-09 11:11:30 GMT 40.902740 1.299316 36,000 339 379 0
2019-11-09 11:11:23 GMT 40.891296 1.305237 36,000 339 380 0
2019-11-09 11:11:19 GMT 40.886215 1.307861 36,000 339 380 0
2019-11-09 11:11:12 GMT 40.874451 1.313965 36,000 339 380 64
2019-11-09 11:11:09 GMT 40.869415 1.316528 36,000 339 380 0
2019-11-09 11:11:03 GMT 40.858612 1.322144 36,000 337 378 0
2019-11-09 11:10:59 GMT 40.852570 1.325317 36,000 339 380 0
2019-11-09 11:10:52 GMT 40.841125 1.331299 36,000 338 379 -64
2019-11-09 11:10:49 GMT 40.835587 1.334290 36,000 338 379 -64
2019-11-09 11:10:43 GMT 40.824875 1.340149 36,000 338 379 0
2019-11-09 11:10:38 GMT 40.819244 1.343262 36,000 338 378 0
2019-11-09 11:10:32 GMT 40.808392 1.349258 36,000 337 378 0
2019-11-09 11:10:29 GMT 40.802628 1.352417 36,000 338 377 0
2019-11-09 11:10:22 GMT 40.792145 1.358276 36,000 339 379 0
2019-11-09 11:10:18 GMT 40.786324 1.361493 36,000 337 378 0
2019-11-09 11:10:12 GMT 40.776215 1.367188 36,000 338 377 64
2019-11-09 11:10:07 GMT 40.769302 1.370972 36,000 338 378 0
2019-11-09 11:10:01 GMT 40.759277 1.376465 36,000 338 377 64
2019-11-09 11:09:58 GMT 40.753456 1.379596 36,000 339 378 0
2019-11-09 11:09:52 GMT 40.743031 1.385089 36,000 339 379 0
2019-11-09 11:09:47 GMT 40.736389 1.388611 36,000 339 379 0
2019-11-09 11:09:41 GMT 40.726784 1.393703 36,000 339 379 0
2019-11-09 11:09:38 GMT 40.720451 1.397074 36,000 339 379 0
2019-11-09 11:09:31 GMT 40.710026 1.402505 36,000 339 379 -64
2019-11-09 11:09:27 GMT 40.703182 1.406125 36,000 339 379 -64
2019-11-09 11:09:20 GMT 40.691620 1.412170 35,975 339 378 448
2019-11-09 11:09:17 GMT 40.687225 1.414490 35,950 339 377 960
2019-11-09 11:09:10 GMT 40.676369 1.420170 35,725 339 378 960
2019-11-09 11:09:07 GMT 40.670315 1.423354 35,775 339 378 1024
2019-11-09 11:08:59 GMT 40.656162 1.430720 35,625 339 378 1088
2019-11-09 11:08:56 GMT 40.653885 1.431906 35,600 339 378 1088
2019-11-09 11:08:50 GMT 40.643646 1.437195 35,425 339 381 1024
2019-11-09 11:08:47 GMT 40.637604 1.440369 35,425 339 379 1088
2019-11-09 11:08:40 GMT 40.627350 1.445701 35,200 339 380 1024
2019-11-09 11:08:36 GMT 40.619980 1.449524 35,250 339 379 1024
2019-11-09 11:08:30 GMT 40.610031 1.454690 35,125 339 380 1024
2019-11-09 11:08:26 GMT 40.603821 1.457947 35,075 339 380 1024
2019-11-09 11:08:19 GMT 40.593552 1.463304 34,950 339 380 1024
2019-11-09 11:08:15 GMT 40.586700 1.466919 34,900 339 380 1024
2019-11-09 11:08:09 GMT 40.577072 1.471918 34,650 339 380 1024
2019-11-09 11:08:05 GMT 40.570229 1.475539 34,700 339 380 1024
2019-11-09 11:08:00 GMT 40.560287 1.480713 34,600 339 380 1088
2019-11-09 11:07:56 GMT 40.554073 1.483966 34,525 339 381 1024
2019-11-09 11:07:49 GMT 40.543602 1.489397 34,425 339 381 1088
2019-11-09 11:07:45 GMT 40.536896 1.492920 34,350 339 381 1024
2019-11-09 11:07:39 GMT 40.527557 1.497742 34,125 339 380 1024
2019-11-09 11:07:35 GMT 40.520184 1.501569 34,175 339 380 1024
2019-11-09 11:07:28 GMT 40.510365 1.506688 34,075 339 380 896
2019-11-09 11:07:25 GMT 40.503799 1.510071 34,000 339 380 960
2019-11-09 11:07:17 GMT 40.490570 1.516907 33,900 339 379 768
2019-11-09 11:07:14 GMT 40.487457 1.518485 33,875 339 379 832
2019-11-09 11:07:09 GMT 40.476059 1.524353 33,625 339 379 1216
2019-11-09 11:07:05 GMT 40.470512 1.527224 33,675 339 379 1216
2019-11-09 11:06:58 GMT 40.459759 1.532780 33,550 339 378 1216
2019-11-09 11:06:54 GMT 40.443932 1.540957 33,325 339 379 1344
2019-11-09 11:06:48 GMT 40.443932 1.540957 33,325 339 379 1344
2019-11-09 11:06:44 GMT 40.437744 1.544128 33,275 339 379 1344
2019-11-09 11:06:37 GMT 40.420578 1.553040 33,000 339 380 1344
2019-11-09 11:06:34 GMT 40.420578 1.553040 33,025 339 380 1344
2019-11-09 11:06:27 GMT 40.409775 1.558594 32,875 339 380 1344
2019-11-09 11:06:23 GMT 40.403549 1.561829 32,650 339 381 1472
2019-11-09 11:06:17 GMT 40.392910 1.567362 32,625 339 381 1472
2019-11-09 11:06:14 GMT 40.387138 1.570358 32,550 339 381 1408
2019-11-09 11:06:08 GMT 40.377594 1.575317 32,425 339 382 1408
2019-11-09 11:06:03 GMT 40.370193 1.579160 32,300 339 382 1472
2019-11-09 11:05:57 GMT 40.360790 1.584029 32,175 339 383 1344
2019-11-09 11:05:53 GMT 40.353699 1.587646 31,900 339 383 1408
2019-11-09 11:05:47 GMT 40.343658 1.592893 31,925 339 383 1408
2019-11-09 11:05:42 GMT 40.335709 1.596985 31,800 339 383 1344
2019-11-09 11:05:37 GMT 40.327274 1.601320 31,700 339 384 1344
2019-11-09 11:05:32 GMT 40.319824 1.605128 31,600 339 383 1280
2019-11-09 11:05:27 GMT 40.310234 1.610059 31,475 339 383 1344
2019-11-09 11:05:23 GMT 40.302841 1.613953 31,225 339 383 1408
2019-11-09 11:05:16 GMT 40.291100 1.619984 31,225 339 383 1408
2019-11-09 11:05:12 GMT 40.286133 1.622559 31,200 339 383 1472
2019-11-09 11:05:05 GMT 40.274918 1.628357 30,975 339 383 1472
2019-11-09 11:05:01 GMT 40.268291 1.631782 30,875 339 383 1472
2019-11-09 11:04:54 GMT 40.250931 1.640686 30,475 339 383 1600
2019-11-09 11:04:46 GMT 40.242874 1.644836 30,500 339 383 1600
2019-11-09 11:04:41 GMT 40.235889 1.648386 30,400 339 383 1600
2019-11-09 11:04:34 GMT 40.223507 1.654753 30,200 339 383 1600
2019-11-09 11:04:30 GMT 40.216061 1.658561 30,075 339 384 1664
2019-11-09 11:04:24 GMT 40.206005 1.663680 29,900 339 384 1856
2019-11-09 11:04:21 GMT 40.201172 1.666138 29,625 339 385 1856
2019-11-09 11:04:16 GMT 40.192085 1.670796 29,650 339 384 1856
2019-11-09 11:04:11 GMT 40.184601 1.674622 29,525 339 385 1856
2019-11-09 11:04:04 GMT 40.171326 1.681396 29,250 339 385 1984
2019-11-09 11:04:01 GMT 40.168671 1.682800 29,200 339 385 1984
2019-11-09 11:03:50 GMT 40.142578 1.696228 28,675 339 387 1856
2019-11-09 11:03:43 GMT 40.138733 1.698181 28,625 339 387 1536
2019-11-09 11:03:34 GMT 40.123421 1.706127 28,325 339 385 1344
2019-11-09 11:03:31 GMT 40.119415 1.708187 28,200 339 385 1408
2019-11-09 11:03:24 GMT 40.107971 1.714050 28,150 339 385 1408
2019-11-09 11:03:18 GMT 40.096573 1.719971 27,950 339 384 1408
2019-11-09 11:03:11 GMT 40.085667 1.725603 27,875 339 383 1408
2019-11-09 11:03:03 GMT 40.072308 1.732531 27,700 339 383 1408
2019-11-09 11:02:55 GMT 40.058853 1.739523 27,500 339 381 1536
2019-11-09 11:02:52 GMT 40.054428 1.741832 27,425 339 381 1600
2019-11-09 11:02:44 GMT 40.040745 1.748761 27,225 337 380 1536
2019-11-09 11:02:35 GMT 40.026993 1.756897 27,100 329 380 1600
2019-11-09 11:02:32 GMT 40.022308 1.760122 26,875 330 380 1664
2019-11-09 11:02:24 GMT 40.009003 1.770752 26,625 324 380 1920
2019-11-09 11:02:20 GMT 40.004433 1.775041 26,525 322 381 1856
2019-11-09 11:02:12 GMT 39.994125 1.785767 26,300 318 383 1600
2019-11-09 11:02:03 GMT 39.982178 1.801086 25,925 314 382 1856
2019-11-09 11:01:53 GMT 39.969955 1.818054 25,725 314 382 1856
2019-11-09 11:01:42 GMT 39.957184 1.835840 25,400 314 380 1728
2019-11-09 11:01:33 GMT 39.944984 1.852694 25,125 314 379 1728
2019-11-09 11:01:19 GMT 39.922668 1.883667 24,575 314 377 1664
2019-11-09 11:01:10 GMT 39.917999 1.890066 24,475 314 377 1600
2019-11-09 11:01:02 GMT 39.908707 1.902904 24,275 314 374 1600
2019-11-09 11:00:50 GMT 39.895020 1.921891 23,950 314 370 1472
2019-11-09 11:00:47 GMT 39.891495 1.926787 23,875 314 370 1536
2019-11-09 11:00:41 GMT 39.883621 1.937654 23,700 314 368 1600
2019-11-09 11:00:35 GMT 39.877579 1.946045 23,575 314 366 1408
2019-11-09 11:00:31 GMT 39.871399 1.954492 23,450 314 365 1408
2019-11-09 11:00:18 GMT 39.851646 1.981750 23,000 314 358 1536
2019-11-09 11:00:11 GMT 39.849602 1.984619 22,950 314 357 1728
2019-11-09 11:00:00 GMT 39.836563 2.002557 22,600 314 355 2048
2019-11-09 10:59:46 GMT 39.815430 2.031677 21,925 314 353 2240
2019-11-09 10:59:40 GMT 39.813057 2.034912 21,850 314 353 2240
2019-11-09 10:59:30 GMT 39.803467 2.048157 21,425 314 351 2304
2019-11-09 10:59:18 GMT 39.783051 2.076297 20,825 314 351 2432
2019-11-09 10:59:10 GMT 39.780888 2.079224 20,750 314 350 2496
2019-11-09 10:59:07 GMT 39.778015 2.083163 20,650 314 350 2496
2019-11-09 10:59:00 GMT 39.769436 2.094971 20,325 314 350 2368
2019-11-09 10:58:57 GMT 39.766754 2.098628 20,225 314 349 2368
2019-11-09 10:58:47 GMT 39.755081 2.114629 19,825 314 348 2304
2019-11-09 10:58:39 GMT 39.746475 2.126511 19,500 314 347 2368
2019-11-09 10:58:36 GMT 39.743927 2.129944 19,425 314 346 2432
2019-11-09 10:58:26 GMT 39.732800 2.145264 19,000 314 345 2432
2019-11-09 10:58:15 GMT 39.720882 2.161621 18,525 314 343 2752
2019-11-09 10:58:09 GMT 39.713436 2.171753 18,225 314 343 2816
2019-11-09 10:58:01 GMT 39.698868 2.191653 17,625 314 343 2560
2019-11-09 10:57:54 GMT 39.697468 2.193604 17,550 314 342 2496
2019-11-09 10:57:49 GMT 39.685318 2.210282 16,975 314 339 2432
2019-11-09 10:57:43 GMT 39.685318 2.210282 17,100 314 340 2432
2019-11-09 10:57:37 GMT 39.679047 2.218880 16,875 314 338 2368
2019-11-09 10:57:32 GMT 39.674240 2.225567 16,700 314 337 2240
2019-11-09 10:57:26 GMT 39.667068 2.235352 16,425 314 334 2816
2019-11-09 10:57:22 GMT 39.662796 2.241211 16,250 314 334 2816
2019-11-09 10:57:15 GMT 39.649612 2.259243 15,650 314 333 2880
2019-11-09 10:57:06 GMT 39.645561 2.264771 15,475 314 333 2880
2019-11-09 10:56:56 GMT 39.635834 2.278111 15,025 314 333 3008
2019-11-09 10:56:46 GMT 39.624752 2.293152 14,525 314 332 2624
2019-11-09 10:56:36 GMT 39.613861 2.307983 14,050 314 330 3072
2019-11-09 10:56:27 GMT 39.604111 2.321160 13,575 314 330 2816
2019-11-09 10:56:14 GMT 39.590744 2.339252 12,950 314 328 2816
2019-11-09 10:56:09 GMT 39.585251 2.346656 12,725 314 328 2688
2019-11-09 10:56:04 GMT 39.580353 2.353343 12,600 314 327 2624
2019-11-09 10:55:57 GMT 39.572193 2.364380 12,125 314 323 2176
2019-11-09 10:55:46 GMT 39.561069 2.379211 11,875 317 317 1664
2019-11-09 10:55:43 GMT 39.558510 2.382324 11,800 319 315 1472
2019-11-09 10:55:36 GMT 39.550415 2.391437 11,250 331 265 3200
2019-11-09 10:55:31 GMT 39.545242 2.396790 11,325 324 309 2304
2019-11-09 10:55:24 GMT 39.533112 2.407737 11,100 328 302 1088
2019-11-09 10:55:21 GMT 39.533112 2.407737 11,075 329 299 1024
2019-11-09 10:55:15 GMT 39.526573 2.412842 11,000 330 293 1024
2019-11-09 10:55:09 GMT 39.519917 2.417847 10,900 330 286 1152
2019-11-09 10:55:06 GMT 39.515350 2.421351 10,825 330 281 1088
2019-11-09 10:54:59 GMT 39.507858 2.427002 10,725 330 273 704
2019-11-09 10:54:55 GMT 39.503906 2.429889 10,675 331 267 1216
2019-11-09 10:54:48 GMT 39.496445 2.435442 10,450 331 262 2688
2019-11-09 10:54:44 GMT 39.492371 2.438487 10,250 331 262 3392
2019-11-09 10:54:38 GMT 39.485779 2.443324 9,875 331 265 3264
2019-11-09 10:54:35 GMT 39.482349 2.445801 9,725 332 265 2688
2019-11-09 10:54:27 GMT 39.474472 2.451265 9,450 332 262 1984
2019-11-09 10:54:21 GMT 39.467827 2.456055 9,275 330 261 1728
2019-11-09 10:54:15 GMT 39.461288 2.462788 9,150 313 249 832
2019-11-09 10:54:05 GMT 39.454330 2.474491 8,900 298 241 2240
2019-11-09 10:53:54 GMT 39.450027 2.487806 8,575 287 239 2752
2019-11-09 10:53:44 GMT 39.448551 2.502075 7,975 266 241 2752
2019-11-09 10:53:35 GMT 39.450043 2.515503 7,550 252 243 2752
2019-11-09 10:53:31 GMT 39.451439 2.520325 7,375 244 244 2624
2019-11-09 10:53:23 GMT 39.455704 2.530199 7,025 238 246 3072
2019-11-09 10:53:13 GMT 39.461960 2.542603 6,475 238 247 3072
2019-11-09 10:53:04 GMT 39.468155 2.554978 6,000 237 245 2816
2019-11-09 10:52:54 GMT 39.474289 2.567039 5,600 237 239 2112
2019-11-09 10:52:43 GMT 39.480488 2.579407 5,275 238 230 1728
2019-11-09 10:52:33 GMT 39.486191 2.590982 4,975 238 221 2176
2019-11-09 10:52:23 GMT 39.491730 2.601909 4,550 238 217 2624
2019-11-09 10:52:13 GMT 39.497478 2.613525 4,075 238 216 1984
2019-11-09 10:52:04 GMT 39.502552 2.623840 3,825 237 207 1600
2019-11-09 10:51:52 GMT 39.508141 2.635010 3,650 238 190 960
2019-11-09 10:51:43 GMT 39.512283 2.643585 3,475 238 173 1344
2019-11-09 10:51:32 GMT 39.517033 2.653259 3,100 237 170 2496
2019-11-09 10:51:22 GMT 39.521439 2.661737 2,700 236 171 2432
2019-11-09 10:51:12 GMT 39.526154 2.670335 2,275 234 174 2176
2019-11-09 10:51:03 GMT 39.530998 2.678894 1,975 235 170 1664
2019-11-09 10:50:52 GMT 39.535561 2.687256 1,625 236 168 2240

Making use of Plane Finder data

You are free to use the raw flight data, aircraft information and images provided in this report for your own purposes provided the data is correctly attributed to Plane Finder. We ask that you please credit Plane Finder and link to planefinder.net in close proximity to the content.

Optionally one of the following logos (no smaller then 150x24px) can be used and must link to planefinder.net

Embedding the Plane Finder map

You are welcome to embed the Plane Finder playback map on your website to offer visitors a more interactive experience. We suggest using the following HTML code:

<iframe src="//planefinder.net/data/report/LS832-G-JZHP-7700-squawk-2019-11-09/map" width="800" height="600" seamless="seamless"></iframe>

Where our data comes from

Plane Finder has a global network of data feeds and antenna radars that receive data broadcast directly from aircraft. The primary technologies used are ADS-B and MLAT. We also show feeds from the FAA and a FLARM glider feed.

Click here to find out more about the Plane Finder network.

How we collect our data